EY65 / A6-BLQ 7700 Squawk Report (4th of July, 2022)

Aircraft B789 Reg No. A6-BLQ Age 4 years old
Model 787 Jet engines 2 First flight 08-09-17
Registered 21-09-17 Rollout N/A Delivered 21-09-17
Construction No. 39661 Line No. 0606 Series 9
ADSHEX 8964C1 Airline name Etihad Airways Owner N/A
Airfield based Abu Dhabi-International~Abu Dhabi~A6 First tracked N/A
Time Lat Lon Altitude Heading Speed Vertical Rate
2022-07-04 01:46:18 GMT 24.463900 54.607803 1,200 127 166 -960
2022-07-04 01:46:14 GMT 24.465866 54.605053 1,250 127 167 -1024
2022-07-04 01:46:09 GMT 24.468182 54.601742 1,325 127 170 -1088
2022-07-04 01:46:04 GMT 24.470604 54.598370 1,425 127 170 -1088
2022-07-04 01:45:42 GMT 24.482147 54.582100 1,725 127 184 -1088
2022-07-04 01:45:40 GMT 24.482660 54.581375 1,750 127 186 -1088
2022-07-04 01:45:22 GMT 24.492416 54.567616 2,000 127 218 -1216
2022-07-04 01:45:17 GMT 24.496019 54.562561 2,100 127 218 -1216
2022-07-04 01:45:13 GMT 24.497650 54.560284 2,150 127 225 -1216
2022-07-04 01:45:12 GMT 24.498674 54.558830 2,175 127 225 -1216
2022-07-04 01:45:09 GMT 24.500656 54.556019 2,250 127 230 -1152
2022-07-04 01:45:06 GMT 24.502724 54.553131 2,300 127 236 -1280
2022-07-04 01:45:04 GMT 24.503723 54.551746 2,325 127 238 -1344
2022-07-04 01:45:03 GMT 24.504446 54.550694 2,350 127 238 -1344
2022-07-04 01:45:02 GMT 24.505424 54.549347 2,375 127 240 -1344
2022-07-04 01:45:01 GMT 24.506262 54.548206 2,400 127 241 -1344
2022-07-04 01:45:00 GMT 24.507019 54.547119 2,425 127 243 -1408
2022-07-04 01:44:57 GMT 24.509148 54.544113 2,500 127 245 -1408
2022-07-04 01:44:55 GMT 24.510824 54.541729 2,525 127 246 -1408
2022-07-04 01:44:52 GMT 24.512146 54.539845 2,575 127 248 -1536
2022-07-04 01:44:50 GMT 24.513758 54.537533 2,625 127 250 -1536
2022-07-04 01:44:49 GMT 24.514502 54.536549 2,650 127 251 -1536
2022-07-04 01:44:48 GMT 24.515200 54.535564 2,675 127 251 -1536
2022-07-04 01:44:47 GMT 24.516998 54.533031 2,750 127 253 -1536
2022-07-04 01:44:44 GMT 24.517731 54.532013 2,750 127 253 -1536
2022-07-04 01:44:43 GMT 24.519808 54.529034 2,825 127 256 -1600
2022-07-04 01:44:40 GMT 24.521347 54.526875 2,875 127 260 -1536
2022-07-04 01:44:39 GMT 24.522137 54.525719 2,900 127 261 -1472
2022-07-04 01:44:37 GMT 24.523346 54.524059 2,925 127 264 -1472
2022-07-04 01:44:36 GMT 24.524092 54.522968 2,950 127 264 -1472
2022-07-04 01:44:35 GMT 24.524918 54.521790 2,975 127 267 -1408
2022-07-04 01:44:34 GMT 24.525650 54.520721 3,000 127 268 -1280
2022-07-04 01:44:32 GMT 24.527258 54.518459 3,050 127 271 -1152
2022-07-04 01:44:31 GMT 24.528002 54.517372 3,075 127 272 -1088
2022-07-04 01:44:30 GMT 24.528793 54.516285 3,100 127 273 -960
2022-07-04 01:44:28 GMT 24.530594 54.513752 3,125 127 275 -768
2022-07-04 01:44:27 GMT 24.531260 54.512760 3,125 127 276 -704
2022-07-04 01:44:26 GMT 24.532150 54.511517 3,150 127 278 -640
2022-07-04 01:44:25 GMT 24.534348 54.508362 3,150 127 281 -512
2022-07-04 01:44:22 GMT 24.534348 54.508362 3,150 127 283 -448
2022-07-04 01:44:20 GMT 24.536957 54.504749 3,200 127 285 -320
2022-07-04 01:44:16 GMT 24.539499 54.501102 3,200 127 293 -320
2022-07-04 01:44:15 GMT 24.540436 54.499817 3,200 127 295 -320
2022-07-04 01:44:13 GMT 24.541363 54.498508 3,200 127 296 -320
2022-07-04 01:44:12 GMT 24.542816 54.496510 3,200 127 300 -320
2022-07-04 01:44:10 GMT 24.544621 54.493950 3,225 127 304 -256
2022-07-04 01:44:09 GMT 24.545563 54.492645 3,225 128 306 -320
2022-07-04 01:44:08 GMT 24.546343 54.491512 3,225 128 308 -320
2022-07-04 01:44:07 GMT 24.547485 54.489948 3,225 128 309 -384
2022-07-04 01:44:06 GMT 24.548485 54.488560 3,250 128 311 -512
2022-07-04 01:44:02 GMT 24.552338 54.483185 3,275 127 315 -704
2022-07-04 01:44:00 GMT 24.553940 54.480896 3,300 127 316 -704
2022-07-04 01:43:57 GMT 24.556824 54.476826 3,350 127 317 -704
2022-07-04 01:43:55 GMT 24.557981 54.475189 3,350 127 318 -704
2022-07-04 01:43:53 GMT 24.559708 54.472759 3,375 127 318 -704
2022-07-04 01:43:52 GMT 24.560867 54.471096 3,400 127 318 -704
2022-07-04 01:43:51 GMT 24.561611 54.470058 3,400 127 318 -704
2022-07-04 01:43:49 GMT 24.563381 54.467468 3,425 127 318 -704
2022-07-04 01:43:47 GMT 24.565109 54.465027 3,450 126 317 -768
2022-07-04 01:43:44 GMT 24.567398 54.461670 3,475 126 317 -768
2022-07-04 01:43:42 GMT 24.569870 54.458057 3,500 126 317 -768
2022-07-04 01:43:41 GMT 24.570690 54.456898 3,525 126 317 -704
2022-07-04 01:43:39 GMT 24.572388 54.454449 3,525 126 317 -768
2022-07-04 01:43:37 GMT 24.574493 54.451344 3,550 127 319 -768
2022-07-04 01:43:36 GMT 24.575485 54.449951 3,575 127 319 -768
2022-07-04 01:43:34 GMT 24.577812 54.446583 3,600 127 320 -832
2022-07-04 01:43:32 GMT 24.579302 54.444511 3,625 127 320 -832
2022-07-04 01:43:31 GMT 24.580187 54.443268 3,625 127 320 -896
2022-07-04 01:43:30 GMT 24.581118 54.441971 3,650 127 320 -960
2022-07-04 01:43:29 GMT 24.582933 54.439381 3,675 127 321 -1024
2022-07-04 01:43:27 GMT 24.583677 54.438343 3,700 127 320 -1024
2022-07-04 01:43:26 GMT 24.584562 54.437050 3,700 127 321 -1024
2022-07-04 01:43:25 GMT 24.585493 54.435753 3,725 127 321 -1024
2022-07-04 01:43:23 GMT 24.587309 54.433163 3,750 127 322 -1024
2022-07-04 01:43:21 GMT 24.588638 54.431202 3,775 126 322 -1024
2022-07-04 01:43:20 GMT 24.589554 54.429882 3,800 125 322 -1024
2022-07-04 01:43:19 GMT 24.590424 54.428608 3,800 125 322 -1024
2022-07-04 01:43:18 GMT 24.591221 54.427410 3,825 125 322 -1024
2022-07-04 01:43:16 GMT 24.593033 54.424591 3,850 124 322 -960
2022-07-04 01:43:15 GMT 24.593966 54.423107 3,875 123 322 -960
2022-07-04 01:43:14 GMT 24.594727 54.421894 3,875 123 322 -960
2022-07-04 01:43:12 GMT 24.596329 54.419098 3,900 121 322 -960
2022-07-04 01:43:10 GMT 24.598022 54.415997 3,950 119 323 -960
2022-07-04 01:43:08 GMT 24.599600 54.413002 3,975 116 322 -896
2022-07-04 01:43:07 GMT 24.600174 54.411671 3,975 116 322 -896
2022-07-04 01:43:06 GMT 24.600763 54.410358 4,000 115 322 -896
2022-07-04 01:43:05 GMT 24.601416 54.408855 4,000 114 323 -896
2022-07-04 01:43:04 GMT 24.602625 54.405853 4,025 112 323 -832
2022-07-04 01:43:02 GMT 24.603184 54.404350 4,050 111 324 -832
2022-07-04 01:43:01 GMT 24.604019 54.402058 4,050 110 323 -768
2022-07-04 01:43:00 GMT 24.605045 54.399117 4,075 109 324 -768
2022-07-04 01:42:57 GMT 24.606070 54.396004 4,100 109 324 -704
2022-07-04 01:42:56 GMT 24.606583 54.394501 4,125 109 324 -704
2022-07-04 01:42:55 GMT 24.607653 54.391083 4,150 109 324 -576
2022-07-04 01:42:53 GMT 24.608166 54.389526 4,150 110 324 -576
2022-07-04 01:42:52 GMT 24.609236 54.386417 4,175 111 324 -448
2022-07-04 01:42:49 GMT 24.609747 54.384865 4,175 111 324 -384
2022-07-04 01:42:48 GMT 24.610306 54.383362 4,175 111 324 -256
2022-07-04 01:42:47 GMT 24.611097 54.381184 4,175 112 325 -128
2022-07-04 01:42:46 GMT 24.612076 54.378613 4,175 112 325 -64
2022-07-04 01:42:44 GMT 24.612671 54.377087 4,200 112 324 -64
2022-07-04 01:42:43 GMT 24.613285 54.375431 4,200 113 324 -64
2022-07-04 01:42:42 GMT 24.613861 54.374035 4,200 113 325 -64
2022-07-04 01:42:41 GMT 24.614685 54.371948 4,200 113 324 -64
2022-07-04 01:42:39 GMT 24.615938 54.368748 4,200 113 324 -192
2022-07-04 01:42:38 GMT 24.616608 54.367065 4,200 113 325 -192
2022-07-04 01:42:37 GMT 24.617243 54.365429 4,200 113 325 -192
2022-07-04 01:42:36 GMT 24.617847 54.363876 4,200 112 325 -256
2022-07-04 01:42:34 GMT 24.618988 54.361012 4,200 112 325 -256
2022-07-04 01:42:33 GMT 24.619583 54.359486 4,200 112 325 -256
2022-07-04 01:42:32 GMT 24.620132 54.357960 4,225 112 325 -320
2022-07-04 01:42:31 GMT 24.621964 54.353027 4,225 112 326 -320
2022-07-04 01:42:28 GMT 24.621964 54.353027 4,225 112 325 -384
2022-07-04 01:42:27 GMT 24.622597 54.351387 4,225 112 325 -384
2022-07-04 01:42:26 GMT 24.623201 54.349831 4,250 112 325 -448
2022-07-04 01:42:25 GMT 24.624527 54.346313 4,250 112 325 -512
2022-07-04 01:42:23 GMT 24.624893 54.345398 4,250 113 326 -576
2022-07-04 01:42:22 GMT 24.625761 54.343147 4,275 113 326 -576
2022-07-04 01:42:20 GMT 24.626972 54.340088 4,300 114 326 -640
2022-07-04 01:42:18 GMT 24.628275 54.337082 4,300 116 327 -704
2022-07-04 01:42:17 GMT 24.628876 54.335735 4,325 117 327 -768
2022-07-04 01:42:16 GMT 24.630369 54.332680 4,350 119 328 -832
2022-07-04 01:42:14 GMT 24.631115 54.331226 4,350 120 327 -832
2022-07-04 01:42:13 GMT 24.631907 54.329777 4,375 122 327 -896
2022-07-04 01:42:11 GMT 24.633722 54.326668 4,400 124 328 -832
2022-07-04 01:42:10 GMT 24.634689 54.325207 4,425 127 328 -896
2022-07-04 01:42:08 GMT 24.636566 54.322559 4,450 131 328 -960
2022-07-04 01:42:07 GMT 24.639404 54.319103 4,475 135 328 -960
2022-07-04 01:42:05 GMT 24.639404 54.319103 4,475 135 328 -960
2022-07-04 01:42:04 GMT 24.640566 54.317806 4,500 138 327 -896
2022-07-04 01:42:02 GMT 24.643478 54.315083 4,525 142 327 -896
2022-07-04 01:42:00 GMT 24.645546 54.313400 4,550 146 327 -960
2022-07-04 01:41:57 GMT 24.650024 54.310303 4,600 150 326 -896
2022-07-04 01:41:55 GMT 24.651224 54.309566 4,600 150 327 -896
2022-07-04 01:41:54 GMT 24.652679 54.308674 4,625 151 327 -960
2022-07-04 01:41:53 GMT 24.653503 54.308167 4,625 151 327 -1088
2022-07-04 01:41:52 GMT 24.656982 54.306133 4,675 151 326 -1152
2022-07-04 01:41:51 GMT 24.659134 54.304859 4,700 151 326 -1088
2022-07-04 01:41:48 GMT 24.660965 54.303791 4,725 151 324 -896
2022-07-04 01:41:47 GMT 24.663895 54.302063 4,775 151 321 -1152
2022-07-04 01:41:45 GMT 24.665098 54.301376 4,775 151 321 -1152
2022-07-04 01:41:44 GMT 24.666401 54.300598 4,800 151 320 -1152
2022-07-04 01:41:43 GMT 24.667706 54.299824 4,800 151 320 -1152
2022-07-04 01:41:42 GMT 24.670313 54.298267 4,850 151 319 -1152
2022-07-04 01:41:40 GMT 24.673050 54.296673 4,875 151 318 -1216
2022-07-04 01:41:38 GMT 24.674223 54.295986 4,875 151 318 -1216
2022-07-04 01:41:37 GMT 24.675659 54.295094 4,900 151 319 -1216
2022-07-04 01:41:36 GMT 24.678268 54.293568 4,925 151 321 -1280
2022-07-04 01:41:34 GMT 24.679550 54.292805 4,950 151 322 -1280
2022-07-04 01:41:33 GMT 24.680878 54.291992 4,975 151 323 -1280
2022-07-04 01:41:32 GMT 24.682205 54.291229 4,975 151 325 -1216
2022-07-04 01:41:30 GMT 24.684860 54.289654 5,025 151 328 -1152
2022-07-04 01:41:29 GMT 24.686188 54.288837 5,050 151 329 -1088
2022-07-04 01:41:28 GMT 24.687515 54.288025 5,050 151 332 -1024
2022-07-04 01:41:27 GMT 24.688889 54.287212 5,075 151 333 -1024
2022-07-04 01:41:26 GMT 24.693356 54.284485 5,100 151 337 -1088
2022-07-04 01:41:24 GMT 24.693356 54.284485 5,125 151 338 -1216
2022-07-04 01:41:23 GMT 24.694752 54.283653 5,125 150 339 -1280
2022-07-04 01:41:22 GMT 24.697498 54.281998 5,175 150 343 -1536
2022-07-04 01:41:20 GMT 24.698895 54.281166 5,200 150 344 -1664
2022-07-04 01:41:18 GMT 24.700571 54.280132 5,225 150 345 -1856
2022-07-04 01:41:17 GMT 24.701843 54.279377 5,250 150 346 -1984
2022-07-04 01:41:15 GMT 24.708023 54.275562 5,375 150 350 -2496
2022-07-04 01:41:13 GMT 24.708023 54.275562 5,425 150 351 -2688
2022-07-04 01:41:12 GMT 24.710907 54.273834 5,475 150 352 -2944
2022-07-04 01:41:09 GMT 24.713470 54.272259 5,575 150 355 -3264
2022-07-04 01:41:08 GMT 24.714935 54.271343 5,625 150 355 -3392
2022-07-04 01:41:07 GMT 24.718540 54.269142 5,800 151 357 -3776
2022-07-04 01:41:05 GMT 24.719833 54.268391 5,800 151 357 -3904
2022-07-04 01:41:04 GMT 24.721298 54.267529 5,850 151 358 -3968
2022-07-04 01:41:03 GMT 24.722763 54.266613 5,925 151 358 -4032
2022-07-04 01:41:02 GMT 24.725693 54.264881 6,050 152 359 -4032
2022-07-04 01:41:00 GMT 24.727291 54.263962 6,125 152 360 -3968
2022-07-04 01:40:59 GMT 24.728943 54.263050 6,175 152 360 -3840
2022-07-04 01:40:58 GMT 24.730270 54.262253 6,225 153 361 -3712
2022-07-04 01:40:57 GMT 24.732367 54.261112 6,325 153 362 -3584
2022-07-04 01:40:55 GMT 24.735214 54.259541 6,425 154 364 -3200
2022-07-04 01:40:53 GMT 24.736603 54.258831 6,450 154 364 -3200
2022-07-04 01:40:52 GMT 24.737814 54.258160 6,500 155 367 -2816
2022-07-04 01:40:49 GMT 24.743271 54.255474 6,625 157 371 -2240
2022-07-04 01:40:48 GMT 24.744873 54.254761 6,675 157 372 -2112
2022-07-04 01:40:47 GMT 24.746155 54.254200 6,700 159 375 -1920
2022-07-04 01:40:46 GMT 24.748566 54.253132 6,725 159 375 -1920
2022-07-04 01:40:44 GMT 24.751547 54.251938 6,775 160 378 -2112
2022-07-04 01:40:43 GMT 24.753176 54.251316 6,825 161 378 -2304
2022-07-04 01:40:42 GMT 24.756899 54.249969 6,875 163 381 -2752
2022-07-04 01:40:40 GMT 24.758575 54.249451 6,925 163 383 -2944
2022-07-04 01:40:39 GMT 24.760298 54.248882 6,975 165 385 -3392
2022-07-04 01:40:38 GMT 24.762177 54.248352 7,025 166 386 -3648
2022-07-04 01:40:37 GMT 24.766342 54.247234 7,150 167 388 -4096
2022-07-04 01:40:35 GMT 24.768127 54.246777 7,200 168 389 -4352
2022-07-04 01:40:33 GMT 24.769701 54.246395 7,250 168 389 -4352
2022-07-04 01:40:32 GMT 24.771332 54.246063 7,350 169 390 -4736
2022-07-04 01:40:31 GMT 24.773804 54.245556 7,450 170 390 -4928
2022-07-04 01:40:29 GMT 24.777569 54.244892 7,650 171 390 -5120
2022-07-04 01:40:28 GMT 24.779337 54.244633 7,875 173 391 -5504
2022-07-04 01:40:26 GMT 24.783142 54.244129 7,875 174 391 -5568
2022-07-04 01:40:24 GMT 24.787298 54.243649 8,050 175 392 -5568
2022-07-04 01:40:21 GMT 24.791674 54.243286 8,250 176 392 -5632
2022-07-04 01:40:20 GMT 24.794605 54.243130 8,400 178 392 -5696
2022-07-04 01:40:18 GMT 24.798798 54.243011 8,625 178 393 -5760
2022-07-04 01:40:16 GMT 24.801682 54.242962 8,725 181 393 -5888
2022-07-04 01:40:14 GMT 24.804245 54.243011 8,850 182 393 -6016
2022-07-04 01:40:13 GMT 24.806076 54.243061 8,950 182 392 -6016
2022-07-04 01:40:12 GMT 24.807907 54.243061 9,050 182 392 -6080
2022-07-04 01:40:09 GMT 24.813354 54.243267 9,325 183 392 -6336
2022-07-04 01:40:07 GMT 24.817184 54.243439 9,525 183 391 -6400
2022-07-04 01:40:05 GMT 24.821732 54.243622 9,775 183 390 -6464
2022-07-04 01:40:04 GMT 24.823702 54.243698 9,875 183 390 -6464
2022-07-04 01:40:02 GMT 24.826401 54.243824 9,975 183 390 -6464
2022-07-04 01:40:01 GMT 24.828232 54.243877 10,125 183 389 -6400
2022-07-04 01:40:00 GMT 24.830219 54.243958 10,225 183 389 -6400
2022-07-04 01:39:59 GMT 24.831661 54.244011 10,300 183 389 -6336
2022-07-04 01:39:57 GMT 24.835464 54.244183 10,500 183 388 -6272
2022-07-04 01:39:56 GMT 24.837435 54.244270 10,600 183 388 -6144
2022-07-04 01:39:54 GMT 24.841019 54.244427 10,700 183 388 -6080
2022-07-04 01:39:53 GMT 24.842651 54.244488 10,850 183 387 -6016
2022-07-04 01:39:52 GMT 24.844278 54.244579 10,950 183 387 -5824
2022-07-04 01:39:50 GMT 24.849838 54.244843 11,175 183 387 -5440
2022-07-04 01:39:47 GMT 24.853588 54.245049 11,400 183 387 -5376
2022-07-04 01:39:46 GMT 24.855240 54.245098 11,550 183 387 -5248
2022-07-04 01:39:44 GMT 24.859734 54.245358 11,650 184 387 -5248
2022-07-04 01:39:42 GMT 24.865311 54.245708 11,900 184 387 -5312
2022-07-04 01:39:40 GMT 24.866901 54.245773 11,975 184 387 -5376
2022-07-04 01:39:39 GMT 24.868717 54.245876 12,200 184 387 -5376
2022-07-04 01:39:36 GMT 24.873373 54.246185 12,225 184 387 -5376
2022-07-04 01:39:35 GMT 24.875015 54.246319 12,300 184 387 -5376
2022-07-04 01:39:34 GMT 24.876801 54.246418 12,425 184 387 -5376
2022-07-04 01:39:33 GMT 24.878586 54.246521 12,525 184 387 -5376
2022-07-04 01:39:32 GMT 24.882156 54.246777 12,675 184 387 -5376
2022-07-04 01:39:30 GMT 24.884308 54.246929 12,875 184 386 -5376
2022-07-04 01:39:29 GMT 24.886139 54.247082 12,950 184 386 -5376
2022-07-04 01:39:27 GMT 24.889898 54.247326 13,025 184 386 -5312
2022-07-04 01:39:26 GMT 24.891861 54.247486 13,125 184 386 -5312
2022-07-04 01:39:24 GMT 24.894745 54.247692 13,200 184 386 -5312
2022-07-04 01:39:23 GMT 24.896694 54.247845 13,400 184 386 -5312
2022-07-04 01:39:22 GMT 24.898512 54.248001 13,475 184 386 -5376
2022-07-04 01:39:21 GMT 24.901352 54.248207 13,575 184 386 -5376
2022-07-04 01:39:19 GMT 24.904770 54.248455 13,725 185 386 -5440
2022-07-04 01:39:18 GMT 24.906378 54.248569 13,800 185 386 -5504
2022-07-04 01:39:17 GMT 24.908020 54.248707 13,875 185 386 -5504
2022-07-04 01:39:16 GMT 24.909964 54.248829 13,975 185 386 -5568
2022-07-04 01:39:14 GMT 24.913548 54.249142 14,150 185 385 -5632
2022-07-04 01:39:13 GMT 24.915316 54.249245 14,225 185 385 -5632
2022-07-04 01:39:11 GMT 24.917830 54.249451 14,350 185 386 -5696
2022-07-04 01:39:10 GMT 24.919600 54.249607 14,425 185 386 -5696
2022-07-04 01:39:08 GMT 24.922989 54.249878 14,550 185 385 -5696
2022-07-04 01:39:07 GMT 24.924627 54.249969 14,725 185 385 -5696
2022-07-04 01:39:06 GMT 24.926559 54.250134 14,775 185 385 -5632
2022-07-04 01:39:05 GMT 24.929077 54.250385 14,875 185 384 -5568
2022-07-04 01:39:04 GMT 24.930679 54.250488 14,950 185 384 -5440
2022-07-04 01:39:03 GMT 24.932602 54.250690 15,025 185 384 -5440
2022-07-04 01:39:02 GMT 24.936357 54.251057 15,225 186 384 -5312
2022-07-04 01:39:00 GMT 24.938499 54.251266 15,325 186 384 -5184
2022-07-04 01:38:58 GMT 24.941162 54.251556 15,400 187 385 -5056
2022-07-04 01:38:56 GMT 24.945948 54.252197 15,650 189 386 -4800
2022-07-04 01:38:54 GMT 24.948788 54.252560 15,775 189 386 -4800
2022-07-04 01:38:51 GMT 24.954620 54.253540 16,050 191 387 -4672
2022-07-04 01:38:49 GMT 24.956934 54.254013 16,100 191 387 -4672
2022-07-04 01:38:47 GMT 24.962240 54.255203 16,300 193 388 -4736
2022-07-04 01:38:45 GMT 24.964142 54.255676 16,450 194 389 -4736
2022-07-04 01:38:43 GMT 24.966980 54.256439 16,475 195 389 -4800
2022-07-04 01:38:42 GMT 24.968719 54.256947 16,625 196 389 -4992
2022-07-04 01:38:41 GMT 24.971319 54.257793 16,700 197 389 -5120
2022-07-04 01:38:39 GMT 24.976486 54.259609 16,950 200 389 -5312
2022-07-04 01:38:37 GMT 24.979065 54.260559 17,075 200 389 -5440
2022-07-04 01:38:36 GMT 24.979883 54.260906 17,150 201 388 -5504
2022-07-04 01:38:35 GMT 24.982452 54.261982 17,225 203 388 -5696
2022-07-04 01:38:34 GMT 24.983934 54.262615 17,325 204 388 -5760
2022-07-04 01:38:31 GMT 24.988216 54.264687 17,625 205 388 -5824
2022-07-04 01:38:30 GMT 24.991974 54.266613 17,750 208 386 -5952
2022-07-04 01:38:27 GMT 24.994410 54.267952 17,925 208 386 -5952
2022-07-04 01:38:25 GMT 24.997696 54.269917 18,075 210 385 -6016
2022-07-04 01:38:23 GMT 25.000168 54.271442 18,300 211 384 -5952
2022-07-04 01:38:21 GMT 25.003235 54.273529 18,525 213 383 -5888
2022-07-04 01:38:19 GMT 25.006805 54.276073 18,625 215 381 -5760
2022-07-04 01:38:18 GMT 25.008421 54.277279 18,725 216 381 -5760
2022-07-04 01:38:17 GMT 25.011978 54.280140 18,950 218 380 -5632
2022-07-04 01:38:15 GMT 25.013262 54.281166 19,025 219 379 -5568
2022-07-04 01:38:13 GMT 25.015045 54.282734 19,175 220 379 -5504
2022-07-04 01:38:11 GMT 25.017637 54.285053 19,400 221 378 -5440
2022-07-04 01:38:09 GMT 25.020676 54.288025 19,450 222 378 -5376
2022-07-04 01:38:08 GMT 25.021957 54.289295 19,550 224 377 -5184
2022-07-04 01:38:07 GMT 25.023085 54.290497 19,625 225 376 -5120
2022-07-04 01:38:06 GMT 25.025940 54.293621 19,825 226 376 -4928
2022-07-04 01:38:04 GMT 25.027042 54.294849 19,875 227 376 -4800
2022-07-04 01:38:02 GMT 25.031046 54.299618 20,125 230 375 -4544
2022-07-04 01:38:00 GMT 25.032209 54.301067 20,200 231 374 -4480
2022-07-04 01:37:59 GMT 25.033447 54.302673 20,300 231 374 -4544
2022-07-04 01:37:58 GMT 25.034546 54.304150 20,350 232 374 -4544
2022-07-04 01:37:57 GMT 25.036697 54.307148 20,475 233 373 -4608
2022-07-04 01:37:55 GMT 25.037657 54.308529 20,550 233 373 -4672
2022-07-04 01:37:54 GMT 25.038574 54.309895 20,600 234 373 -4672
2022-07-04 01:37:52 GMT 25.040863 54.313251 20,775 234 372 -4672
2022-07-04 01:37:51 GMT 25.041985 54.314903 20,850 234 372 -4672
2022-07-04 01:37:49 GMT 25.043106 54.316608 20,925 234 371 -4672
2022-07-04 01:37:48 GMT 25.044218 54.318272 21,000 234 370 -4672
2022-07-04 01:37:47 GMT 25.045166 54.319660 21,075 234 370 -4672
2022-07-04 01:37:45 GMT 25.047409 54.322968 21,225 234 369 -4672
2022-07-04 01:37:44 GMT 25.048315 54.324333 21,300 234 368 -4672
2022-07-04 01:37:42 GMT 25.051575 54.329155 21,550 234 366 -4416
2022-07-04 01:37:40 GMT 25.052599 54.330658 21,550 234 366 -4416
2022-07-04 01:37:39 GMT 25.053623 54.332161 21,650 234 366 -4288
2022-07-04 01:37:38 GMT 25.056648 54.336617 21,825 234 366 -3968
2022-07-04 01:37:36 GMT 25.056648 54.336617 21,850 234 366 -3840
2022-07-04 01:37:34 GMT 25.059256 54.340504 22,000 234 365 -3264
2022-07-04 01:37:33 GMT 25.059860 54.341434 22,025 234 365 -3264
2022-07-04 01:37:30 GMT 25.063385 54.346668 22,175 234 366 -2624
2022-07-04 01:37:28 GMT 25.064516 54.348328 22,225 234 367 -2432
2022-07-04 01:37:27 GMT 25.065540 54.349831 22,250 234 367 -2304
2022-07-04 01:37:26 GMT 25.067642 54.352978 22,325 234 369 -2112
2022-07-04 01:37:24 GMT 25.068798 54.354652 22,375 234 369 -2176
2022-07-04 01:37:23 GMT 25.069702 54.356030 22,375 234 371 -2112
2022-07-04 01:37:22 GMT 25.070709 54.357555 22,425 234 371 -2112
2022-07-04 01:37:20 GMT 25.073181 54.361217 22,500 234 372 -2112
2022-07-04 01:37:18 GMT 25.075922 54.365326 22,575 234 372 -2112
2022-07-04 01:37:16 GMT 25.077131 54.367191 22,625 234 373 -2176
2022-07-04 01:37:15 GMT 25.078262 54.368896 22,650 234 373 -2240
2022-07-04 01:37:14 GMT 25.080204 54.371803 22,725 235 374 -2304
2022-07-04 01:37:12 GMT 25.081100 54.373169 22,750 235 374 -2304
2022-07-04 01:37:11 GMT 25.082153 54.374744 22,800 235 374 -2304
2022-07-04 01:37:09 GMT 25.084253 54.377972 22,875 235 374 -2432
2022-07-04 01:37:08 GMT 25.085815 54.380291 22,925 235 374 -2496
2022-07-04 01:37:06 GMT 25.086823 54.381866 22,950 235 374 -2496
2022-07-04 01:37:05 GMT 25.088058 54.383698 23,000 235 374 -2496
2022-07-04 01:37:04 GMT 25.089142 54.385433 23,050 235 374 -2560
2022-07-04 01:37:03 GMT 25.090166 54.386990 23,100 235 375 -2560
2022-07-04 01:37:01 GMT 25.092215 54.390045 23,175 235 375 -2560
2022-07-04 01:37:00 GMT 25.093239 54.391602 23,200 235 375 -2560
2022-07-04 01:36:59 GMT 25.094330 54.393311 23,250 235 375 -2560
2022-07-04 01:36:57 GMT 25.096390 54.396412 23,325 235 376 -2496
2022-07-04 01:36:56 GMT 25.097708 54.398441 23,375 235 376 -2432
2022-07-04 01:36:55 GMT 25.098816 54.400177 23,425 235 376 -2432
2022-07-04 01:36:54 GMT 25.099941 54.401859 23,450 235 376 -2368
2022-07-04 01:36:53 GMT 25.102112 54.405163 23,525 235 376 -2368
2022-07-04 01:36:50 GMT 25.103016 54.406525 23,575 235 376 -2432
2022-07-04 01:36:49 GMT 25.104172 54.408264 23,625 234 375 -2368
2022-07-04 01:36:48 GMT 25.105062 54.409634 23,650 234 375 -2368
2022-07-04 01:36:46 GMT 25.107239 54.412891 23,725 234 376 -2368
2022-07-04 01:36:45 GMT 25.108788 54.415230 23,775 234 376 -2368
2022-07-04 01:36:44 GMT 25.109812 54.416786 23,800 234 375 -2368
2022-07-04 01:36:43 GMT 25.110718 54.418182 23,850 234 375 -2368
2022-07-04 01:36:42 GMT 25.112698 54.421085 23,950 234 376 -2432
2022-07-04 01:36:40 GMT 25.113602 54.422455 24,025 234 375 -2496
2022-07-04 01:36:38 GMT 25.115583 54.425388 24,025 234 375 -2496
2022-07-04 01:36:37 GMT 25.116714 54.427082 24,050 234 374 -2560
2022-07-04 01:36:36 GMT 25.117865 54.428810 24,150 234 374 -2560
2022-07-04 01:36:34 GMT 25.120468 54.432629 24,200 234 374 -2560
2022-07-04 01:36:31 GMT 25.123032 54.436478 24,300 234 374 -2496
2022-07-04 01:36:30 GMT 25.124588 54.438782 24,350 234 374 -2432
2022-07-04 01:36:29 GMT 25.127361 54.442905 24,450 234 374 -2496
2022-07-04 01:36:27 GMT 25.127361 54.442905 24,450 234 374 -2496
2022-07-04 01:36:25 GMT 25.129829 54.446583 24,550 234 372 -2688
2022-07-04 01:36:23 GMT 25.131546 54.449207 24,625 234 372 -2624
2022-07-04 01:36:21 GMT 25.133694 54.452389 24,875 234 371 -2560
2022-07-04 01:36:19 GMT 25.134842 54.454090 24,875 234 370 -2560
2022-07-04 01:36:17 GMT 25.137976 54.458763 24,875 234 369 -2176
2022-07-04 01:36:15 GMT 25.139420 54.460888 24,900 234 369 -2048
2022-07-04 01:36:14 GMT 25.140518 54.462585 24,925 234 369 -1920
2022-07-04 01:36:13 GMT 25.141653 54.464256 24,975 234 369 -1728
2022-07-04 01:36:12 GMT 25.142532 54.465588 25,000 234 369 -1600
2022-07-04 01:36:11 GMT 25.143768 54.467419 25,025 234 368 -1344
2022-07-04 01:36:09 GMT 25.145702 54.470268 25,075 234 369 -1216
2022-07-04 01:36:08 GMT 25.146835 54.471943 25,075 234 369 -1216
2022-07-04 01:36:07 GMT 25.150360 54.477032 25,125 233 369 -1152
2022-07-04 01:36:05 GMT 25.150360 54.477032 25,150 233 370 -1152
2022-07-04 01:36:04 GMT 25.151413 54.478558 25,150 233 370 -1152
2022-07-04 01:36:02 GMT 25.152420 54.480030 25,200 233 370 -1152
2022-07-04 01:36:01 GMT 25.153473 54.481556 25,200 232 370 -1088
2022-07-04 01:35:59 GMT 25.155624 54.484509 25,225 231 370 -1152
2022-07-04 01:35:58 GMT 25.156830 54.486122 25,250 231 370 -1152
2022-07-04 01:35:57 GMT 25.157900 54.487576 25,275 231 371 -1152
2022-07-04 01:35:55 GMT 25.159903 54.490166 25,300 230 371 -1216
2022-07-04 01:35:53 GMT 25.162491 54.493458 25,325 228 371 -1280
2022-07-04 01:35:52 GMT 25.163910 54.495136 25,375 228 371 -1280
2022-07-04 01:35:49 GMT 25.167116 54.498875 25,400 224 372 -1344
2022-07-04 01:35:47 GMT 25.169584 54.501514 25,450 223 371 -1344
2022-07-04 01:35:46 GMT 25.170731 54.502666 25,475 222 372 -1280
2022-07-04 01:35:44 GMT 25.173403 54.505348 25,500 221 372 -1216
2022-07-04 01:35:43 GMT 25.174622 54.506428 25,550 219 372 -1152
2022-07-04 01:35:41 GMT 25.178101 54.509533 25,575 217 372 -1088
2022-07-04 01:35:39 GMT 25.180758 54.511673 25,600 216 373 -1024
2022-07-04 01:35:38 GMT 25.182154 54.512814 25,625 214 373 -960
2022-07-04 01:35:37 GMT 25.183731 54.514008 25,625 214 373 -960
2022-07-04 01:35:36 GMT 25.186340 54.515839 25,650 213 374 -960
2022-07-04 01:35:34 GMT 25.187973 54.516960 25,675 211 374 -896
2022-07-04 01:35:33 GMT 25.190186 54.518433 25,700 210 374 -960
2022-07-04 01:35:31 GMT 25.195999 54.521942 25,725 208 375 -1024
2022-07-04 01:35:29 GMT 25.195999 54.521942 25,750 207 376 -1088
2022-07-04 01:35:27 GMT 25.199331 54.523697 25,775 205 376 -1152
2022-07-04 01:35:26 GMT 25.200760 54.524384 25,800 204 376 -1152
2022-07-04 01:35:25 GMT 25.202171 54.525097 25,825 203 377 -1152
2022-07-04 01:35:23 GMT 25.205246 54.526520 25,850 201 376 -1024
2022-07-04 01:35:21 GMT 25.208363 54.527790 25,900 201 376 -960
2022-07-04 01:35:20 GMT 25.209991 54.528461 25,925 198 376 -768
2022-07-04 01:35:18 GMT 25.212479 54.529369 25,925 197 376 -704
2022-07-04 01:35:17 GMT 25.215134 54.530285 25,950 196 376 -640
2022-07-04 01:35:15 GMT 25.219023 54.531467 25,975 195 375 -448
2022-07-04 01:35:13 GMT 25.220535 54.531910 25,975 194 375 -320
2022-07-04 01:35:12 GMT 25.222376 54.532402 26,000 191 374 -64
2022-07-04 01:35:10 GMT 25.226797 54.533440 26,000 190 374 -64
2022-07-04 01:35:09 GMT 25.228846 54.533852 26,000 190 374 -64
2022-07-04 01:35:07 GMT 25.231430 54.534302 26,000 189 374 -64
2022-07-04 01:35:06 GMT 25.235550 54.534912 26,000 186 373 -64
2022-07-04 01:35:04 GMT 25.236923 54.535065 26,000 186 373 -64
2022-07-04 01:35:02 GMT 25.240204 54.535408 26,000 184 372 0
2022-07-04 01:35:00 GMT 25.244720 54.535614 26,000 181 372 0
2022-07-04 01:34:58 GMT 25.246443 54.535667 26,000 180 372 0
2022-07-04 01:34:57 GMT 25.248165 54.535667 26,000 179 371 0
2022-07-04 01:34:55 GMT 25.252808 54.535572 26,000 176 370 0
2022-07-04 01:34:54 GMT 25.254683 54.535458 26,000 171 369 0
2022-07-04 01:34:53 GMT 25.260315 54.534809 26,000 171 369 0
2022-07-04 01:34:51 GMT 25.260315 54.534809 26,000 171 369 0
2022-07-04 01:34:49 GMT 25.264389 54.534046 26,000 168 369 0
2022-07-04 01:34:47 GMT 25.265902 54.533695 26,000 165 368 0
2022-07-04 01:34:46 GMT 25.267902 54.533230 26,000 165 368 0
2022-07-04 01:34:45 GMT 25.271027 54.532269 26,000 163 367 0
2022-07-04 01:34:43 GMT 25.272837 54.531677 26,000 160 366 -64
2022-07-04 01:34:41 GMT 25.278122 54.529572 26,000 156 365 0
2022-07-04 01:34:37 GMT 25.281357 54.527996 26,000 150 364 0
2022-07-04 01:34:35 GMT 25.285767 54.525555 26,000 150 364 0
2022-07-04 01:34:33 GMT 25.291645 54.521572 26,000 143 363 -64
2022-07-04 01:34:31 GMT 25.291645 54.521572 26,000 143 363 -64
2022-07-04 01:34:29 GMT 25.295609 54.518383 26,000 140 363 0
2022-07-04 01:34:26 GMT 25.297836 54.516441 26,000 139 362 0
2022-07-04 01:34:24 GMT 25.300507 54.513855 26,000 135 362 0
2022-07-04 01:34:22 GMT 25.302305 54.511879 26,000 134 362 -64
2022-07-04 01:34:21 GMT 25.305330 54.508408 26,000 130 361 -64
2022-07-04 01:34:18 GMT 25.306503 54.506886 26,000 129 361 -64
2022-07-04 01:34:17 GMT 25.308197 54.504597 26,000 127 361 -64
2022-07-04 01:34:14 GMT 25.311291 54.499962 26,000 121 360 -64
2022-07-04 01:34:13 GMT 25.312222 54.498459 26,000 121 360 -64
2022-07-04 01:34:12 GMT 25.314056 54.495136 26,000 118 360 -64
2022-07-04 01:34:09 GMT 25.315434 54.492393 26,000 117 360 -64
2022-07-04 01:34:07 GMT 25.316574 54.489948 26,000 113 360 -64
2022-07-04 01:34:05 GMT 25.318319 54.485764 26,000 112 360 -64
2022-07-04 01:34:04 GMT 25.320053 54.480793 26,000 104 359 -64
2022-07-04 01:34:02 GMT 25.320053 54.480793 26,000 104 359 -64
2022-07-04 01:33:59 GMT 25.321810 54.474621 26,000 100 359 0
2022-07-04 01:33:56 GMT 25.322647 54.470734 26,000 100 359 0
2022-07-04 01:33:54 GMT 25.323074 54.468029 26,000 99 360 64
2022-07-04 01:33:53 GMT 25.323486 54.465294 26,000 98 359 64
2022-07-04 01:33:52 GMT 25.323715 54.463299 26,000 95 359 64
2022-07-04 01:33:51 GMT 25.323898 54.461468 26,000 91 360 -64
2022-07-04 01:33:49 GMT 25.324081 54.457806 26,000 91 360 -64
2022-07-04 01:33:48 GMT 25.324093 54.455757 26,000 89 361 -64
2022-07-04 01:33:47 GMT 25.323906 54.449123 26,000 85 361 -128
2022-07-04 01:33:45 GMT 25.323906 54.449123 26,000 83 362 -64
2022-07-04 01:33:43 GMT 25.323532 54.444717 26,000 82 362 -64
2022-07-04 01:33:40 GMT 25.323114 54.441040 26,000 82 363 -64
2022-07-04 01:33:38 GMT 25.322647 54.437412 26,000 82 363 -64
2022-07-04 01:33:37 GMT 25.322433 54.435730 26,000 82 363 -64
2022-07-04 01:33:36 GMT 25.322184 54.433731 26,000 82 364 -64
2022-07-04 01:33:35 GMT 25.321930 54.431713 26,000 82 364 0
2022-07-04 01:33:32 GMT 25.321198 54.425812 26,000 81 365 64
2022-07-04 01:33:31 GMT 25.320923 54.423573 26,000 81 365 64
2022-07-04 01:33:30 GMT 25.320692 54.421917 26,000 81 365 64
2022-07-04 01:33:28 GMT 25.319715 54.414143 26,000 82 366 64
2022-07-04 01:33:26 GMT 25.319715 54.414143 26,000 82 367 64
2022-07-04 01:33:25 GMT 25.319483 54.412331 25,975 82 367 64
2022-07-04 01:33:24 GMT 25.318680 54.405773 25,975 82 368 64
2022-07-04 01:33:21 GMT 25.318680 54.405773 25,975 82 369 64
2022-07-04 01:33:20 GMT 25.318451 54.403942 25,975 82 369 64
2022-07-04 01:33:19 GMT 25.317947 54.400177 26,000 82 370 64
2022-07-04 01:33:17 GMT 25.317627 54.397583 25,975 82 371 64
2022-07-04 01:33:15 GMT 25.317261 54.394581 25,975 82 372 64
2022-07-04 01:33:13 GMT 25.316830 54.390980 26,000 82 373 0
2022-07-04 01:33:12 GMT 25.316549 54.388748 25,975 82 373 0
2022-07-04 01:33:11 GMT 25.316437 54.387768 25,975 82 373 0
2022-07-04 01:33:09 GMT 25.315750 54.382477 26,000 82 374 0
2022-07-04 01:33:07 GMT 25.315384 54.379475 26,000 82 374 0
2022-07-04 01:33:05 GMT 25.314606 54.373425 26,000 82 374 -64
2022-07-04 01:33:03 GMT 25.314362 54.371338 26,000 82 374 0
2022-07-04 01:33:02 GMT 25.314129 54.369419 26,000 82 374 0
2022-07-04 01:32:59 GMT 25.313644 54.365437 26,000 82 374 0
2022-07-04 01:32:58 GMT 25.313059 54.360714 26,000 82 374 0
2022-07-04 01:32:56 GMT 25.312775 54.358624 26,000 82 374 0
2022-07-04 01:32:55 GMT 25.312408 54.355621 26,000 82 375 0
2022-07-04 01:32:54 GMT 25.312180 54.353687 26,000 82 375 0
2022-07-04 01:32:53 GMT 25.311569 54.348949 26,000 82 375 0
2022-07-04 01:32:49 GMT 25.311010 54.344391 26,000 82 375 0
2022-07-04 01:32:47 GMT 25.310778 54.342525 26,000 82 375 0
2022-07-04 01:32:46 GMT 25.310452 54.339882 26,000 82 375 0
2022-07-04 01:32:45 GMT 25.310219 54.337963 25,975 82 375 0
2022-07-04 01:32:44 GMT 25.310034 54.336460 25,975 82 375 0
2022-07-04 01:32:43 GMT 25.309479 54.332073 26,000 82 375 0
2022-07-04 01:32:41 GMT 25.309288 54.330399 26,000 82 375 0
2022-07-04 01:32:40 GMT 25.309055 54.328480 26,000 82 375 64
2022-07-04 01:32:38 GMT 25.308542 54.324699 25,975 82 375 0
2022-07-04 01:32:37 GMT 25.308334 54.322968 25,975 82 375 0
2022-07-04 01:32:36 GMT 25.308105 54.321087 25,975 82 375 0
2022-07-04 01:32:35 GMT 25.307844 54.318996 26,000 82 375 0
2022-07-04 01:32:34 GMT 25.307007 54.312389 26,000 82 375 -64
2022-07-04 01:32:32 GMT 25.307007 54.312389 25,975 82 374 -64
2022-07-04 01:32:30 GMT 25.306274 54.306286 26,000 82 374 -64
2022-07-04 01:32:27 GMT 25.305937 54.303864 26,000 82 374 0
2022-07-04 01:32:25 GMT 25.305496 54.300232 26,000 82 374 -64
2022-07-04 01:32:23 GMT 25.305084 54.297230 26,000 82 374 -64
2022-07-04 01:32:22 GMT 25.304764 54.294586 26,000 82 374 -64
2022-07-04 01:32:21 GMT 25.304214 54.290009 26,000 82 374 -128
2022-07-04 01:32:18 GMT 25.303894 54.287365 26,000 82 373 -128
2022-07-04 01:32:17 GMT 25.303514 54.284172 26,000 82 373 -128
2022-07-04 01:32:16 GMT 25.303049 54.280392 26,000 82 373 -64
2022-07-04 01:32:14 GMT 25.302816 54.278522 26,000 82 372 -64
2022-07-04 01:32:13 GMT 25.302584 54.276608 26,000 82 372 -64
2022-07-04 01:32:12 GMT 25.302383 54.274902 26,000 82 372 -64
2022-07-04 01:32:08 GMT 25.301239 54.266308 26,000 79 372 0
2022-07-04 01:32:06 GMT 25.300919 54.264423 26,000 78 371 0
2022-07-04 01:32:03 GMT 25.299957 54.259594 26,000 74 371 -64
2022-07-04 01:32:02 GMT 25.299500 54.257763 26,000 72 372 -64
2022-07-04 01:32:01 GMT 25.299046 54.256138 26,000 71 371 -64
2022-07-04 01:32:00 GMT 25.297943 54.252319 26,000 69 372 -64
2022-07-04 01:31:57 GMT 25.296114 54.247223 26,000 65 372 -64
2022-07-04 01:31:55 GMT 25.294670 54.243752 26,000 62 373 -64
2022-07-04 01:31:54 GMT 25.293961 54.242249 26,000 59 372 0
2022-07-04 01:31:49 GMT 25.289457 54.233852 26,000 54 374 -64
2022-07-04 01:31:47 GMT 25.287735 54.231213 26,000 53 374 -64
2022-07-04 01:31:46 GMT 25.286802 54.229862 26,000 51 374 0
2022-07-04 01:31:44 GMT 25.284302 54.226429 26,000 49 374 0
2022-07-04 01:31:43 GMT 25.283264 54.225147 26,000 47 375 -64
2022-07-04 01:31:42 GMT 25.282101 54.223747 26,000 44 375 -64
2022-07-04 01:31:41 GMT 25.280891 54.222347 26,000 44 375 -64
2022-07-04 01:31:40 GMT 25.277075 54.218410 26,000 40 375 -64
2022-07-04 01:31:38 GMT 25.277075 54.218410 26,000 40 375 -64
2022-07-04 01:31:37 GMT 25.275211 54.216648 26,000 36 377 0
2022-07-04 01:31:36 GMT 25.271484 54.213512 26,000 35 377 0
2022-07-04 01:31:33 GMT 25.269791 54.212139 26,000 32 378 0
2022-07-04 01:31:31 GMT 25.267731 54.210712 26,000 30 379 -64
2022-07-04 01:31:29 GMT 25.264389 54.208527 26,000 30 379 -64
2022-07-04 01:31:28 GMT 25.262878 54.207611 26,000 27 379 -64
2022-07-04 01:31:27 GMT 25.261276 54.206696 26,000 23 379 0
2022-07-04 01:31:25 GMT 25.257940 54.204987 26,000 19 380 0
2022-07-04 01:31:23 GMT 25.249146 54.201458 26,000 19 380 0
2022-07-04 01:31:20 GMT 25.249146 54.201458 26,000 15 382 0
2022-07-04 01:31:18 GMT 25.245930 54.200481 26,000 10 382 0
2022-07-04 01:31:17 GMT 25.244019 54.199982 26,000 10 382 0
2022-07-04 01:31:16 GMT 25.242279 54.199627 26,000 8 382 -64
2022-07-04 01:31:12 GMT 25.235596 54.198559 26,000 3 383 0
2022-07-04 01:31:08 GMT 25.226519 54.198147 26,000 358 384 0
2022-07-04 01:31:05 GMT 25.222778 54.198353 26,000 353 385 0
2022-07-04 01:31:04 GMT 25.221210 54.198509 26,000 353 385 0
2022-07-04 01:31:03 GMT 25.219620 54.198761 26,000 351 384 0
2022-07-04 01:31:00 GMT 25.214310 54.199677 26,000 349 385 -64
2022-07-04 01:30:58 GMT 25.211151 54.200390 26,000 348 385 -64
2022-07-04 01:30:57 GMT 25.209620 54.200844 26,000 345 385 0
2022-07-04 01:30:55 GMT 25.206345 54.201862 26,000 341 386 -64
2022-07-04 01:30:53 GMT 25.202957 54.203136 26,000 337 385 -64
2022-07-04 01:30:51 GMT 25.198120 54.205299 26,000 335 386 -64
2022-07-04 01:30:49 GMT 25.195724 54.206543 26,000 332 386 0
2022-07-04 01:30:48 GMT 25.194122 54.207458 26,000 332 386 0
2022-07-04 01:30:46 GMT 25.190487 54.209652 26,000 330 386 0
2022-07-04 01:30:45 GMT 25.189133 54.210560 26,000 327 386 0
2022-07-04 01:30:44 GMT 25.187462 54.211777 26,000 325 387 -64
2022-07-04 01:30:40 GMT 25.182526 54.215717 26,000 321 387 0
2022-07-04 01:30:39 GMT 25.180897 54.217216 26,000 314 387 -64
2022-07-04 01:30:37 GMT 25.178055 54.219971 26,000 314 387 -64
2022-07-04 01:30:35 GMT 25.175591 54.222607 26,000 314 387 -64
2022-07-04 01:30:34 GMT 25.174484 54.223888 26,000 313 387 -64
2022-07-04 01:30:29 GMT 25.168121 54.232483 26,000 305 387 -64
2022-07-04 01:30:26 GMT 25.165192 54.237415 26,000 301 387 -64
2022-07-04 01:30:24 GMT 25.163813 54.240021 26,000 299 387 -64
2022-07-04 01:30:23 GMT 25.162973 54.241730 26,000 298 387 -64
2022-07-04 01:30:22 GMT 25.162262 54.243317 26,000 296 388 -64
2022-07-04 01:30:20 GMT 25.160460 54.247433 26,000 294 388 -64
2022-07-04 01:30:19 GMT 25.159809 54.249294 26,000 291 388 0
2022-07-04 01:30:18 GMT 25.159109 54.251110 26,000 291 388 0
2022-07-04 01:30:17 GMT 25.158463 54.253185 26,000 288 388 0
2022-07-04 01:30:16 GMT 25.157913 54.255066 26,000 287 388 64
2022-07-04 01:30:13 GMT 25.156410 54.260956 26,000 283 388 64
2022-07-04 01:30:12 GMT 25.156036 54.262695 26,000 278 388 64
2022-07-04 01:30:11 GMT 25.155666 54.264843 25,975 278 388 64
2022-07-04 01:30:07 GMT 25.154984 54.269764 25,975 277 389 64
2022-07-04 01:30:03 GMT 25.154709 54.285992 25,975 268 389 -64
2022-07-04 01:30:00 GMT 25.154709 54.285992 25,975 266 389 -64
2022-07-04 01:29:59 GMT 25.155199 54.291740 26,000 264 389 -64
2022-07-04 01:29:57 GMT 25.155199 54.291740 26,000 263 389 0
2022-07-04 01:29:56 GMT 25.155479 54.294071 26,000 263 389 0
2022-07-04 01:29:54 GMT 25.155945 54.298008 26,000 263 389 0
2022-07-04 01:29:53 GMT 25.156317 54.300755 26,000 263 389 0
2022-07-04 01:29:52 GMT 25.156549 54.302727 26,000 263 389 -64
2022-07-04 01:29:51 GMT 25.157272 54.308422 26,000 263 389 -64
2022-07-04 01:29:49 GMT 25.157272 54.308422 26,000 263 389 -64
2022-07-04 01:29:47 GMT 25.157776 54.312389 26,000 263 389 -64
2022-07-04 01:29:46 GMT 25.158279 54.316303 26,000 263 389 0
2022-07-04 01:29:44 GMT 25.158504 54.318066 26,000 263 389 -64
2022-07-04 01:29:42 GMT 25.159250 54.323971 26,000 263 389 64
2022-07-04 01:29:40 GMT 25.159515 54.326122 26,000 263 389 64
2022-07-04 01:29:38 GMT 25.159973 54.330090 26,000 263 389 -64
2022-07-04 01:29:37 GMT 25.160553 54.334595 26,000 263 389 -64
2022-07-04 01:29:34 GMT 25.160751 54.336395 26,000 263 389 -64
2022-07-04 01:29:33 GMT 25.160973 54.338173 26,000 263 389 -64
2022-07-04 01:29:32 GMT 25.161209 54.339905 26,000 263 389 -64
2022-07-04 01:29:31 GMT 25.161438 54.341888 26,000 263 389 0
2022-07-04 01:29:28 GMT 25.162043 54.346825 26,000 263 389 0
2022-07-04 01:29:27 GMT 25.162321 54.348797 26,000 263 389 64
2022-07-04 01:29:25 GMT 25.162994 54.354504 26,000 263 390 0
2022-07-04 01:29:24 GMT 25.163254 54.356670 26,000 263 390 0
2022-07-04 01:29:23 GMT 25.163532 54.358643 25,975 263 390 0
2022-07-04 01:29:22 GMT 25.163767 54.360611 25,975 263 390 0
2022-07-04 01:29:19 GMT 25.164465 54.366516 26,000 263 390 0
2022-07-04 01:29:18 GMT 25.164688 54.368286 26,000 263 390 -64
2022-07-04 01:29:17 GMT 25.164976 54.370457 26,000 263 390 -64
2022-07-04 01:29:15 GMT 25.165466 54.374592 26,000 263 390 -64
2022-07-04 01:29:13 GMT 25.165907 54.377972 26,000 263 390 0
2022-07-04 01:29:12 GMT 25.166698 54.384708 26,000 263 390 -64
2022-07-04 01:29:10 GMT 25.166698 54.384708 26,000 263 390 0
2022-07-04 01:29:08 GMT 25.167210 54.388645 26,000 263 390 0
2022-07-04 01:29:06 GMT 25.167629 54.392170 25,975 263 390 0
2022-07-04 01:29:05 GMT 25.167984 54.395142 25,975 263 390 0
2022-07-04 01:29:03 GMT 25.168488 54.399109 25,975 263 390 0
2022-07-04 01:29:01 GMT 25.168945 54.402668 25,975 263 390 0
2022-07-04 01:28:59 GMT 25.169445 54.406784 26,000 263 390 -64
2022-07-04 01:28:58 GMT 25.169678 54.408569 26,000 263 390 -64
2022-07-04 01:28:57 GMT 25.169865 54.410358 25,975 263 391 -64
2022-07-04 01:28:54 GMT 25.170469 54.415077 26,000 263 390 -64
2022-07-04 01:28:53 GMT 25.170748 54.417046 25,975 263 391 -64
2022-07-04 01:28:52 GMT 25.171097 54.420013 26,000 263 391 -64
2022-07-04 01:28:51 GMT 25.171463 54.422810 25,975 263 390 -64
2022-07-04 01:28:49 GMT 25.171875 54.426373 26,000 263 390 -64
2022-07-04 01:28:48 GMT 25.172379 54.430286 26,000 263 390 -64
2022-07-04 01:28:46 GMT 25.172607 54.431866 26,000 263 390 -64
2022-07-04 01:28:44 GMT 25.173203 54.436596 26,000 263 390 -128
2022-07-04 01:28:41 GMT 25.173798 54.441376 26,000 263 390 -128
2022-07-04 01:28:39 GMT 25.174147 54.444305 26,000 263 390 -128
2022-07-04 01:28:38 GMT 25.174438 54.446461 26,000 263 390 -128
2022-07-04 01:28:35 GMT 25.175171 54.452595 26,000 263 390 -64
2022-07-04 01:28:34 GMT 25.175491 54.455158 26,000 263 389 0
2022-07-04 01:28:33 GMT 25.175730 54.456947 26,000 263 389 0
2022-07-04 01:28:31 GMT 25.176407 54.462231 26,000 262 389 0
2022-07-04 01:28:29 GMT 25.176893 54.465603 26,000 261 389 0
2022-07-04 01:28:28 GMT 25.177219 54.467522 26,000 259 389 64
2022-07-04 01:28:26 GMT 25.177963 54.471638 26,000 256 389 0
2022-07-04 01:28:25 GMT 25.178431 54.473740 26,000 254 389 0
2022-07-04 01:28:24 GMT 25.178896 54.475655 26,000 254 389 0
2022-07-04 01:28:23 GMT 25.179337 54.477386 26,000 249 389 0
2022-07-04 01:28:21 GMT 25.180897 54.482445 26,000 249 389 0
2022-07-04 01:28:18 GMT 25.182993 54.487938 26,000 245 389 0
2022-07-04 01:28:16 GMT 25.183783 54.489754 26,000 244 389 0
2022-07-04 01:28:14 GMT 25.185272 54.492912 26,000 241 389 0
2022-07-04 01:28:13 GMT 25.186249 54.494831 26,000 240 389 -64
2022-07-04 01:28:10 GMT 25.188354 54.498547 26,000 237 389 -64
2022-07-04 01:28:09 GMT 25.189362 54.500172 26,000 235 389 -64
2022-07-04 01:28:07 GMT 25.192612 54.504955 26,000 231 389 -64
2022-07-04 01:28:06 GMT 25.193651 54.506336 26,000 230 389 -64
2022-07-04 01:28:05 GMT 25.194717 54.507702 26,000 228 389 0
2022-07-04 01:28:03 GMT 25.198074 54.511570 26,000 223 389 -64
2022-07-04 01:27:59 GMT 25.204544 54.517891 26,000 216 388 0
2022-07-04 01:27:57 GMT 25.205988 54.519081 26,000 216 388 0
2022-07-04 01:27:56 GMT 25.207432 54.520222 26,000 214 387 -64
2022-07-04 01:27:54 GMT 25.210133 54.522243 26,000 210 387 -64
2022-07-04 01:27:52 GMT 25.212753 54.523975 26,000 209 387 -64
2022-07-04 01:27:50 GMT 25.215763 54.525822 26,000 206 387 -64
2022-07-04 01:27:48 GMT 25.220280 54.528206 26,000 203 386 0
2022-07-04 01:27:44 GMT 25.226984 54.531002 26,000 198 385 -64
2022-07-04 01:27:41 GMT 25.231825 54.532558 26,000 193 385 0
2022-07-04 01:27:38 GMT 25.234943 54.533333 26,000 191 384 0
2022-07-04 01:27:37 GMT 25.236877 54.533741 26,000 191 384 0
2022-07-04 01:27:36 GMT 25.243790 54.534733 26,000 188 385 0
2022-07-04 01:27:34 GMT 25.243790 54.534733 26,000 184 384 -64
2022-07-04 01:27:33 GMT 25.245930 54.534889 26,000 181 384 -64
2022-07-04 01:27:31 GMT 25.249649 54.535015 26,000 178 383 0
2022-07-04 01:27:30 GMT 25.251238 54.534992 26,000 177 383 -64
2022-07-04 01:27:29 GMT 25.253220 54.534912 26,000 176 382 -64
2022-07-04 01:27:28 GMT 25.255148 54.534786 26,000 174 382 -64
2022-07-04 01:27:27 GMT 25.258686 54.534424 26,000 172 381 -64
2022-07-04 01:27:25 GMT 25.260269 54.534199 26,000 170 381 -64
2022-07-04 01:27:24 GMT 25.262009 54.533894 26,000 169 381 -64
2022-07-04 01:27:23 GMT 25.263575 54.533592 26,000 168 381 0
2022-07-04 01:27:20 GMT 25.267868 54.532520 26,000 163 380 -64
2022-07-04 01:27:19 GMT 25.269608 54.532013 26,000 163 380 -64
2022-07-04 01:27:18 GMT 25.271114 54.531521 26,000 162 379 0
2022-07-04 01:27:17 GMT 25.272791 54.530952 26,000 159 379 -64
2022-07-04 01:27:16 GMT 25.276291 54.529621 26,000 158 378 -64
2022-07-04 01:27:13 GMT 25.279680 54.528049 26,000 151 377 -64
2022-07-04 01:27:11 GMT 25.283661 54.526012 26,000 151 377 -64
2022-07-04 01:27:08 GMT 25.289877 54.522038 26,000 146 376 -64
2022-07-04 01:27:05 GMT 25.291878 54.520535 26,000 144 375 0
2022-07-04 01:27:03 GMT 25.294556 54.518383 26,000 141 376 0
2022-07-04 01:27:02 GMT 25.296858 54.516388 26,000 139 375 0
2022-07-04 01:27:01 GMT 25.298080 54.515228 26,000 137 375 -64
2022-07-04 01:26:59 GMT 25.302155 54.511059 26,000 130 374 -64
2022-07-04 01:26:55 GMT 25.305330 54.507267 26,000 129 375 -64
2022-07-04 01:26:53 GMT 25.307877 54.503834 26,000 128 374 -64
2022-07-04 01:26:50 GMT 25.309847 54.500946 26,000 125 374 -64
2022-07-04 01:26:49 GMT 25.311310 54.498547 26,000 120 373 -64
2022-07-04 01:26:46 GMT 25.313507 54.494678 26,000 120 373 -64
2022-07-04 01:26:45 GMT 25.314835 54.491985 26,000 116 373 0
2022-07-04 01:26:42 GMT 25.317017 54.487003 26,000 113 373 64
2022-07-04 01:26:41 GMT 25.318972 54.481720 26,000 111 373 0
2022-07-04 01:26:39 GMT 25.318972 54.481720 26,000 105 373 64
2022-07-04 01:26:37 GMT 25.320229 54.477779 26,000 105 373 64
2022-07-04 01:26:36 GMT 25.320740 54.475758 26,000 99 373 64
2022-07-04 01:26:34 GMT 25.321299 54.473324 26,000 99 373 64
2022-07-04 01:26:32 GMT 25.322647 54.465500 26,000 96 373 64
2022-07-04 01:26:30 GMT 25.323114 54.460938 25,975 95 373 64
2022-07-04 01:26:28 GMT 25.323254 54.458656 25,975 90 374 64
2022-07-04 01:26:26 GMT 25.323303 54.456585 25,975 89 374 -64
2022-07-04 01:26:24 GMT 25.323254 54.452957 25,975 87 374 -64
2022-07-04 01:26:23 GMT 25.323166 54.451244 25,975 85 374 -64
2022-07-04 01:26:22 GMT 25.323029 54.449310 26,000 84 374 -64
2022-07-04 01:26:20 GMT 25.322754 54.446259 26,000 83 374 0
2022-07-04 01:26:18 GMT 25.322369 54.442284 26,000 82 374 0
2022-07-04 01:26:16 GMT 25.321747 54.437561 26,000 81 374 -64
2022-07-04 01:26:15 GMT 25.321531 54.435856 26,000 81 374 -64
2022-07-04 01:26:14 GMT 25.321299 54.433941 26,000 81 374 -64
2022-07-04 01:26:11 GMT 25.319855 54.422588 26,000 81 374 0
2022-07-04 01:26:08 GMT 25.319855 54.422588 26,000 81 374 0
2022-07-04 01:26:05 GMT 25.319092 54.416706 26,000 81 374 0
2022-07-04 01:26:04 GMT 25.318817 54.414825 26,000 81 374 0
2022-07-04 01:26:01 GMT 25.318319 54.410877 26,000 81 374 0
2022-07-04 01:25:58 GMT 25.317490 54.404247 26,000 81 374 -64
2022-07-04 01:25:56 GMT 25.316986 54.400433 26,000 82 374 -64
2022-07-04 01:25:54 GMT 25.316458 54.396473 26,000 82 374 0
2022-07-04 01:25:53 GMT 25.316223 54.394554 26,000 82 374 0
2022-07-04 01:25:52 GMT 25.315990 54.392689 26,000 82 374 -64
2022-07-04 01:25:49 GMT 25.315475 54.388683 26,000 82 374 -64
2022-07-04 01:25:46 GMT 25.314594 54.381702 26,000 82 374 -64
2022-07-04 01:25:44 GMT 25.314102 54.377747 26,000 82 374 -64
2022-07-04 01:25:43 GMT 25.313782 54.375050 26,000 82 374 -64
2022-07-04 01:25:42 GMT 25.313524 54.372997 26,000 82 374 0
2022-07-04 01:25:40 GMT 25.313105 54.369576 26,000 82 374 0
2022-07-04 01:25:38 GMT 25.312778 54.366932 26,000 82 374 0
2022-07-04 01:25:37 GMT 25.312500 54.364880 26,000 82 374 -64
2022-07-04 01:25:35 GMT 25.312035 54.360870 26,000 82 374 0
2022-07-04 01:25:34 GMT 25.311802 54.359005 26,000 82 374 0
2022-07-04 01:25:33 GMT 25.311539 54.356892 26,000 82 374 0
2022-07-04 01:25:31 GMT 25.311104 54.353306 26,000 82 374 0
2022-07-04 01:25:30 GMT 25.310898 54.351604 26,000 82 374 0
2022-07-04 01:25:29 GMT 25.310638 54.349522 26,000 82 374 0
2022-07-04 01:25:26 GMT 25.309986 54.344234 26,000 82 374 0
2022-07-04 01:25:25 GMT 25.309570 54.341022 26,000 82 374 0
2022-07-04 01:25:23 GMT 25.309195 54.337811 26,000 82 374 0
2022-07-04 01:25:22 GMT 25.308929 54.335735 26,000 82 374 0
2022-07-04 01:25:20 GMT 25.308609 54.333088 26,000 82 374 0
2022-07-04 01:25:19 GMT 25.308151 54.329681 26,000 82 374 0
2022-07-04 01:25:17 GMT 25.307739 54.326275 26,000 82 374 0
2022-07-04 01:25:16 GMT 25.307472 54.324181 26,000 82 374 0
2022-07-04 01:25:15 GMT 25.306732 54.317932 26,000 82 374 0
2022-07-04 01:25:13 GMT 25.306732 54.317932 26,000 82 374 0
2022-07-04 01:25:12 GMT 25.306503 54.316051 26,000 82 373 0
2022-07-04 01:25:10 GMT 25.306000 54.312286 26,000 82 373 0
2022-07-04 01:25:07 GMT 25.305285 54.306404 26,000 82 373 0
2022-07-04 01:25:05 GMT 25.305084 54.304707 26,000 82 373 0
2022-07-04 01:25:04 GMT 25.304308 54.298889 26,000 82 373 -64
2022-07-04 01:25:02 GMT 25.304308 54.298889 26,000 82 373 -64
2022-07-04 01:25:01 GMT 25.304077 54.297180 26,000 81 372 -64
2022-07-04 01:24:59 GMT 25.303656 54.293606 26,000 81 372 -64
2022-07-04 01:24:57 GMT 25.303049 54.289097 26,000 81 372 -128
2022-07-04 01:24:55 GMT 25.302567 54.285480 26,000 81 372 -128
2022-07-04 01:24:53 GMT 25.301701 54.278938 26,000 81 372 -64
2022-07-04 01:24:52 GMT 25.301701 54.278938 26,000 81 371 -64
2022-07-04 01:24:51 GMT 25.301514 54.277241 26,000 81 372 -64
2022-07-04 01:24:49 GMT 25.301003 54.273651 26,000 81 371 0
2022-07-04 01:24:47 GMT 25.300415 54.269360 26,000 80 370 64
2022-07-04 01:24:45 GMT 25.299976 54.266552 26,000 79 370 64
2022-07-04 01:24:43 GMT 25.299683 54.264881 26,000 78 370 64
2022-07-04 01:24:41 GMT 25.298859 54.260864 26,000 75 370 0
2022-07-04 01:24:39 GMT 25.297577 54.255779 26,000 72 370 0
2022-07-04 01:24:38 GMT 25.297091 54.254116 26,000 69 370 64
2022-07-04 01:24:34 GMT 25.294764 54.247433 26,000 64 371 64
2022-07-04 01:24:32 GMT 25.292715 54.242664 26,000 61 370 64
2022-07-04 01:24:30 GMT 25.290253 54.237873 25,975 57 371 64
2022-07-04 01:24:27 GMT 25.286636 54.231873 25,975 50 372 64
2022-07-04 01:24:25 GMT 25.286636 54.231873 25,975 50 372 64
2022-07-04 01:24:24 GMT 25.285500 54.230175 25,975 50 372 64
2022-07-04 01:24:23 GMT 25.284119 54.228260 25,975 49 372 0
2022-07-04 01:24:21 GMT 25.281263 54.224628 25,975 47 372 0
2022-07-04 01:24:19 GMT 25.280228 54.223377 25,975 44 373 -64
2022-07-04 01:24:17 GMT 25.278889 54.221935 25,975 44 373 -64
2022-07-04 01:24:16 GMT 25.277023 54.219921 25,975 43 373 -64
2022-07-04 01:24:14 GMT 25.274414 54.217377 25,975 39 373 -128
2022-07-04 01:24:13 GMT 25.272652 54.215820 26,000 37 372 -192
2022-07-04 01:24:12 GMT 25.271164 54.214581 26,000 36 372 -192
2022-07-04 01:24:10 GMT 25.268372 54.212341 26,000 35 372 -192
2022-07-04 01:24:08 GMT 25.265762 54.210461 26,000 31 371 -256
2022-07-04 01:24:06 GMT 25.262787 54.208527 26,025 26 369 -128
2022-07-04 01:24:02 GMT 25.255417 54.204510 26,025 20 368 -64
2022-07-04 01:24:00 GMT 25.252853 54.203388 26,025 18 369 -64
2022-07-04 01:23:58 GMT 25.249329 54.201965 26,000 17 369 -64
2022-07-04 01:23:57 GMT 25.246399 54.200947 26,000 15 370 -64
2022-07-04 01:23:55 GMT 25.244253 54.200325 26,000 14 370 -64
2022-07-04 01:23:54 GMT 25.242905 54.199909 26,000 10 372 -64
2022-07-04 01:23:52 GMT 25.240204 54.199287 26,000 10 372 -64
2022-07-04 01:23:49 GMT 25.234758 54.198303 26,000 6 373 64
2022-07-04 01:23:48 GMT 25.233215 54.198101 26,000 5 374 0
2022-07-04 01:23:46 GMT 25.229916 54.197838 26,000 2 376 64
2022-07-04 01:23:45 GMT 25.228148 54.197735 26,000 1 377 64
2022-07-04 01:23:40 GMT 25.218521 54.197948 26,000 354 381 128
2022-07-04 01:23:39 GMT 25.216782 54.198151 26,000 353 382 128
2022-07-04 01:23:38 GMT 25.215206 54.198357 26,000 351 383 192
2022-07-04 01:23:37 GMT 25.213436 54.198666 26,000 350 384 192
2022-07-04 01:23:35 GMT 25.208176 54.199860 25,975 345 386 192
2022-07-04 01:23:31 GMT 25.203873 54.201202 25,975 342 389 192
2022-07-04 01:23:29 GMT 25.201126 54.202221 25,975 337 393 192
2022-07-04 01:23:28 GMT 25.194908 54.205143 25,975 336 394 192
2022-07-04 01:23:26 GMT 25.194908 54.205143 25,975 331 398 128
2022-07-04 01:23:24 GMT 25.191650 54.207008 25,975 331 398 128
2022-07-04 01:23:23 GMT 25.188484 54.209084 25,975 326 401 64
2022-07-04 01:23:20 GMT 25.185411 54.211361 25,975 324 403 64
2022-07-04 01:23:18 GMT 25.182386 54.213848 25,975 318 407 0
2022-07-04 01:23:16 GMT 25.179657 54.216358 25,975 318 407 0
2022-07-04 01:23:15 GMT 25.178150 54.217892 25,975 317 409 0
2022-07-04 01:23:14 GMT 25.175449 54.220844 25,975 314 411 0
2022-07-04 01:23:12 GMT 25.174255 54.222210 26,000 311 413 0
2022-07-04 01:23:11 GMT 25.171633 54.225563 25,975 308 416 64
2022-07-04 01:23:09 GMT 25.170319 54.227398 25,975 308 416 64
2022-07-04 01:23:07 GMT 25.167801 54.231159 25,975 302 420 64
2022-07-04 01:23:06 GMT 25.166702 54.232941 25,975 302 420 64
2022-07-04 01:23:05 GMT 25.165695 54.234722 25,975 299 422 64
2022-07-04 01:23:02 GMT 25.162928 54.240177 25,975 296 424 64
2022-07-04 01:23:01 GMT 25.162043 54.242146 25,975 294 426 64
2022-07-04 01:22:59 GMT 25.161205 54.244114 25,975 291 427 128
2022-07-04 01:22:57 GMT 25.159716 54.248104 25,975 291 427 128
2022-07-04 01:22:54 GMT 25.157867 54.254150 25,975 287 430 128
2022-07-04 01:22:52 GMT 25.156448 54.260101 25,975 281 435 128
2022-07-04 01:22:50 GMT 25.155624 54.264423 25,950 280 436 64
2022-07-04 01:22:48 GMT 25.155107 54.268627 25,950 277 438 -64
2022-07-04 01:22:44 GMT 25.154526 54.277802 25,975 271 443 -64
2022-07-04 01:22:42 GMT 25.154572 54.281872 25,975 269 443 -64
2022-07-04 01:22:41 GMT 25.154688 54.284382 25,975 267 445 -128
2022-07-04 01:22:40 GMT 25.154827 54.286610 26,000 266 446 -64
2022-07-04 01:22:39 GMT 25.154966 54.288891 26,000 265 446 -64
2022-07-04 01:22:36 GMT 25.155806 54.297543 25,975 263 450 0
2022-07-04 01:22:33 GMT 25.156311 54.301861 25,975 263 452 -64
2022-07-04 01:22:31 GMT 25.156921 54.306664 25,975 263 454 -64
2022-07-04 01:22:30 GMT 25.157202 54.308945 25,975 263 455 -64
2022-07-04 01:22:29 GMT 25.157574 54.312210 25,975 263 459 -64
2022-07-04 01:22:28 GMT 25.157867 54.314728 25,975 263 459 -64
2022-07-04 01:22:27 GMT 25.158413 54.319099 25,975 263 460 -64
2022-07-04 01:22:24 GMT 25.158972 54.323765 25,975 263 461 -64
2022-07-04 01:22:22 GMT 25.159561 54.328663 25,975 263 463 -64
2022-07-04 01:22:19 GMT 25.161072 54.340412 25,975 263 467 -64
2022-07-04 01:22:17 GMT 25.161072 54.340412 25,975 263 467 -64
2022-07-04 01:22:15 GMT 25.161810 54.346310 25,975 262 469 -64
2022-07-04 01:22:14 GMT 25.161997 54.347759 25,975 262 471 -64
2022-07-04 01:22:13 GMT 25.162462 54.351074 25,975 262 472 -64
2022-07-04 01:22:07 GMT 25.165009 54.368031 25,975 260 477 -128
2022-07-04 01:22:05 GMT 25.165009 54.368031 25,975 260 479 -128
2022-07-04 01:22:03 GMT 25.166473 54.376171 25,975 258 482 -256
2022-07-04 01:21:58 GMT 25.168467 54.386005 26,000 257 485 -256
2022-07-04 01:21:55 GMT 25.170469 54.394138 26,025 254 487 -320
2022-07-04 01:21:54 GMT 25.171005 54.396313 26,025 254 489 -320
2022-07-04 01:21:50 GMT 25.173820 54.406059 26,025 251 492 -192
2022-07-04 01:21:49 GMT 25.174612 54.408443 26,025 251 493 -192
2022-07-04 01:21:48 GMT 25.175262 54.410553 26,025 250 493 -128
2022-07-04 01:21:47 GMT 25.176941 54.415543 26,025 249 494 -64
2022-07-04 01:21:45 GMT 25.177689 54.417622 26,025 249 494 -64
2022-07-04 01:21:43 GMT 25.178661 54.420204 26,025 248 495 -64
2022-07-04 01:21:42 GMT 25.179501 54.422539 26,025 247 495 -64
2022-07-04 01:21:40 GMT 25.181316 54.427200 26,000 246 495 -64
2022-07-04 01:21:38 GMT 25.183224 54.431816 26,000 244 496 64
2022-07-04 01:21:36 GMT 25.185699 54.437511 26,000 244 496 64
2022-07-04 01:21:34 GMT 25.187302 54.441120 26,000 244 496 128
2022-07-04 01:21:32 GMT 25.189276 54.445442 26,000 243 495 128
2022-07-04 01:21:30 GMT 25.192629 54.452648 26,000 243 496 128
2022-07-04 01:21:28 GMT 25.193802 54.455109 26,000 243 496 192
2022-07-04 01:21:27 GMT 25.194956 54.457569 26,000 243 496 192
2022-07-04 01:21:26 GMT 25.197006 54.461823 26,000 243 498 256
2022-07-04 01:21:24 GMT 25.197981 54.463894 25,975 243 498 256
2022-07-04 01:21:22 GMT 25.200727 54.469696 25,975 243 499 256
2022-07-04 01:21:20 GMT 25.202545 54.473572 25,975 243 499 256
2022-07-04 01:21:18 GMT 25.204697 54.478046 25,975 243 499 256
2022-07-04 01:21:17 GMT 25.205750 54.480335 25,950 243 499 256
2022-07-04 01:21:16 GMT 25.207260 54.483490 25,950 243 500 256
2022-07-04 01:21:14 GMT 25.209366 54.488018 25,950 243 500 192
2022-07-04 01:21:12 GMT 25.211517 54.492542 25,950 243 501 192
2022-07-04 01:21:11 GMT 25.212505 54.494572 25,950 243 502 192
2022-07-04 01:21:09 GMT 25.214647 54.499130 25,950 243 504 128
2022-07-04 01:21:07 GMT 25.217255 54.504623 25,950 243 505 128
2022-07-04 01:21:05 GMT 25.219299 54.508923 25,950 243 506 64
2022-07-04 01:21:02 GMT 25.221397 54.513279 25,950 243 507 64
2022-07-04 01:21:01 GMT 25.222778 54.516296 25,950 243 510 64
2022-07-04 01:20:59 GMT 25.225075 54.521156 25,950 243 512 0
2022-07-04 01:20:58 GMT 25.226303 54.523670 25,950 243 512 -64
2022-07-04 01:20:57 GMT 25.227308 54.525768 25,950 243 514 -128
2022-07-04 01:20:54 GMT 25.230972 54.533436 25,975 243 517 -192
2022-07-04 01:20:53 GMT 25.232071 54.535778 25,975 243 519 -192
2022-07-04 01:20:52 GMT 25.233269 54.538361 25,975 243 520 -256
2022-07-04 01:20:50 GMT 25.235184 54.542339 25,975 243 521 -256
2022-07-04 01:20:48 GMT 25.238016 54.548260 26,000 243 523 -320
2022-07-04 01:20:46 GMT 25.240128 54.552765 26,000 243 526 -320
2022-07-04 01:20:45 GMT 25.241182 54.554893 26,000 243 527 -320
2022-07-04 01:20:44 GMT 25.242188 54.557037 26,000 243 528 -320
2022-07-04 01:20:42 GMT 25.246033 54.565125 26,025 243 531 -192
2022-07-04 01:20:39 GMT 25.247978 54.569248 26,025 243 531 -192
2022-07-04 01:20:38 GMT 25.249466 54.572346 26,025 243 533 -192
2022-07-04 01:20:37 GMT 25.253054 54.579819 26,000 243 534 -128
2022-07-04 01:20:34 GMT 25.254683 54.583187 26,000 243 535 -128
2022-07-04 01:20:33 GMT 25.254683 54.583187 26,000 243 535 -128
2022-07-04 01:20:31 GMT 25.256266 54.586609 26,000 243 536 -128
2022-07-04 01:20:30 GMT 25.257568 54.589233 26,000 243 536 -128
2022-07-04 01:20:28 GMT 25.260773 54.596050 26,000 243 536 -64
2022-07-04 01:20:27 GMT 25.261917 54.598438 26,000 243 536 -64
2022-07-04 01:20:26 GMT 25.265297 54.605473 26,000 243 536 0
2022-07-04 01:20:24 GMT 25.265297 54.605473 26,000 243 536 -64
2022-07-04 01:20:23 GMT 25.267624 54.610340 26,000 243 536 -64
2022-07-04 01:20:21 GMT 25.268742 54.612778 26,000 243 536 -64
2022-07-04 01:20:20 GMT 25.270981 54.617359 26,000 243 536 -64
2022-07-04 01:20:17 GMT 25.273163 54.621952 26,000 243 536 0
2022-07-04 01:20:16 GMT 25.276749 54.629467 26,000 243 536 0
2022-07-04 01:20:14 GMT 25.276749 54.629467 26,000 243 536 0
2022-07-04 01:20:13 GMT 25.277893 54.631908 26,000 243 536 0
2022-07-04 01:20:11 GMT 25.280100 54.636513 25,975 243 536 64
2022-07-04 01:20:09 GMT 25.282427 54.641384 25,975 243 536 64
2022-07-04 01:20:08 GMT 25.283590 54.643768 26,000 243 536 64
2022-07-04 01:20:05 GMT 25.286570 54.650089 25,975 243 536 0
2022-07-04 01:20:03 GMT 25.289474 54.656116 25,975 243 536 -64
2022-07-04 01:20:01 GMT 25.291077 54.659527 25,975 243 536 -64
2022-07-04 01:20:00 GMT 25.292389 54.662216 25,975 243 536 0
2022-07-04 01:19:59 GMT 25.293869 54.665325 25,975 243 536 -64
2022-07-04 01:19:56 GMT 25.297348 54.672596 25,975 243 536 -64
2022-07-04 01:19:55 GMT 25.298492 54.675037 25,975 243 536 -64
2022-07-04 01:19:54 GMT 25.299513 54.677193 26,000 243 536 -64
2022-07-04 01:19:53 GMT 25.302200 54.682770 26,000 243 536 0
2022-07-04 01:19:51 GMT 25.303469 54.685432 25,975 243 536 0
2022-07-04 01:19:50 GMT 25.304489 54.687653 26,000 243 536 -64
2022-07-04 01:19:49 GMT 25.306028 54.690769 26,000 243 537 -64
2022-07-04 01:19:45 GMT 25.309475 54.698078 26,000 243 537 -64
2022-07-04 01:19:43 GMT 25.313049 54.705608 26,000 243 537 0
2022-07-04 01:19:40 GMT 25.316299 54.712421 25,975 243 537 0
2022-07-04 01:19:39 GMT 25.317444 54.714813 25,975 243 537 0
2022-07-04 01:19:37 GMT 25.319435 54.718964 25,975 243 537 0
2022-07-04 01:19:36 GMT 25.320465 54.721172 26,000 243 537 0
2022-07-04 01:19:34 GMT 25.322525 54.725494 26,000 243 537 0
2022-07-04 01:19:32 GMT 25.325209 54.731087 25,975 243 537 0
2022-07-04 01:19:30 GMT 25.328064 54.737194 25,975 243 537 -64
2022-07-04 01:19:28 GMT 25.330282 54.741817 25,975 243 537 -64
2022-07-04 01:19:27 GMT 25.331448 54.744251 26,000 243 537 -64
2022-07-04 01:19:25 GMT 25.333649 54.748840 25,975 243 537 0
2022-07-04 01:19:24 GMT 25.334564 54.750774 25,975 243 537 0
2022-07-04 01:19:22 GMT 25.337357 54.756622 25,975 243 537 -64
2022-07-04 01:19:20 GMT 25.338501 54.759064 25,975 243 538 -64
2022-07-04 01:19:19 GMT 25.340244 54.762699 25,975 243 538 -64
2022-07-04 01:19:18 GMT 25.341410 54.765137 26,000 243 538 -64
2022-07-04 01:19:17 GMT 25.343582 54.769745 26,000 243 538 -64
2022-07-04 01:19:15 GMT 25.344622 54.771976 26,000 243 538 -64
2022-07-04 01:19:14 GMT 25.345871 54.774628 26,000 243 538 -64
2022-07-04 01:19:12 GMT 25.348345 54.779751 26,000 243 538 -64
2022-07-04 01:19:11 GMT 25.349695 54.782654 26,000 243 538 -64
2022-07-04 01:19:10 GMT 25.350859 54.785088 26,000 243 538 -64
2022-07-04 01:19:09 GMT 25.353188 54.789959 26,000 243 538 -64
2022-07-04 01:19:07 GMT 25.354349 54.792393 26,000 243 538 -64
2022-07-04 01:19:06 GMT 25.355392 54.794567 26,000 243 538 -128
2022-07-04 01:19:04 GMT 25.357727 54.799450 26,000 243 538 -64
2022-07-04 01:19:02 GMT 25.359890 54.804054 26,000 243 538 -64
2022-07-04 01:19:00 GMT 25.362122 54.808704 26,000 243 538 -64
2022-07-04 01:18:58 GMT 25.365555 54.815979 26,000 243 538 64
2022-07-04 01:18:56 GMT 25.366640 54.818203 26,000 243 538 64
2022-07-04 01:18:55 GMT 25.367758 54.820637 26,000 243 538 64
2022-07-04 01:18:54 GMT 25.371946 54.829395 26,000 243 537 64
2022-07-04 01:18:52 GMT 25.371946 54.829395 26,000 243 537 64
2022-07-04 01:18:50 GMT 25.374847 54.835461 26,000 243 537 64
2022-07-04 01:18:47 GMT 25.377594 54.841309 25,975 243 537 0
2022-07-04 01:18:45 GMT 25.379242 54.844715 25,975 243 537 0
2022-07-04 01:18:43 GMT 25.381678 54.849812 25,975 243 537 64
2022-07-04 01:18:41 GMT 25.383724 54.854164 25,975 243 537 64
2022-07-04 01:18:40 GMT 25.385468 54.857838 25,975 243 537 64
2022-07-04 01:18:38 GMT 25.387682 54.862457 25,975 243 537 64
2022-07-04 01:18:37 GMT 25.388947 54.865112 25,975 243 537 64
2022-07-04 01:18:35 GMT 25.391359 54.870232 25,975 243 537 0
2022-07-04 01:18:31 GMT 25.395447 54.878693 25,975 243 537 -64
2022-07-04 01:18:30 GMT 25.396481 54.880905 25,975 243 537 0
2022-07-04 01:18:29 GMT 25.397736 54.883575 25,975 243 537 0
2022-07-04 01:18:27 GMT 25.399925 54.888214 25,975 243 537 -64
2022-07-04 01:18:26 GMT 25.400986 54.890392 25,975 243 537 -64
2022-07-04 01:18:24 GMT 25.404579 54.897957 26,000 243 538 -64
2022-07-04 01:18:23 GMT 25.407211 54.903515 26,000 243 538 -64
2022-07-04 01:18:21 GMT 25.407211 54.903515 26,000 243 538 -64
2022-07-04 01:18:20 GMT 25.408491 54.906197 26,000 243 538 -64
2022-07-04 01:18:18 GMT 25.410353 54.910084 26,000 243 538 -64
2022-07-04 01:18:17 GMT 25.412912 54.915470 26,000 243 538 -64
2022-07-04 01:18:16 GMT 25.412912 54.915470 26,000 243 538 -64
2022-07-04 01:18:14 GMT 25.415817 54.921570 26,000 243 538 -64
2022-07-04 01:18:12 GMT 25.418152 54.926453 26,000 243 538 -64
2022-07-04 01:18:11 GMT 25.419197 54.928635 26,000 243 538 -64
2022-07-04 01:18:10 GMT 25.420212 54.930828 26,000 243 538 -64
2022-07-04 01:18:07 GMT 25.426832 54.944698 26,000 243 539 0
2022-07-04 01:18:04 GMT 25.426832 54.944698 26,000 243 539 0
2022-07-04 01:18:03 GMT 25.427996 54.947136 26,000 243 539 0
2022-07-04 01:18:01 GMT 25.430420 54.952290 26,000 243 539 0
2022-07-04 01:18:00 GMT 25.431953 54.955425 26,000 243 539 0
2022-07-04 01:17:58 GMT 25.433716 54.959106 26,000 243 539 0
2022-07-04 01:17:56 GMT 25.435776 54.963482 26,000 243 539 64
2022-07-04 01:17:54 GMT 25.438704 54.969574 26,000 243 538 64
2022-07-04 01:17:52 GMT 25.440903 54.974163 25,975 243 538 64
2022-07-04 01:17:50 GMT 25.443695 54.980011 25,975 243 538 64
2022-07-04 01:17:48 GMT 25.446030 54.984894 26,000 243 537 -64
2022-07-04 01:17:45 GMT 25.448246 54.989525 25,975 243 537 0
2022-07-04 01:17:43 GMT 25.450575 54.994347 25,975 243 537 0
2022-07-04 01:17:42 GMT 25.455093 55.003864 26,000 243 537 -64
2022-07-04 01:17:40 GMT 25.455093 55.003864 26,000 243 536 -64
2022-07-04 01:17:39 GMT 25.456114 55.006004 26,000 243 536 -64
2022-07-04 01:17:38 GMT 25.457277 55.008442 26,000 243 536 -64
2022-07-04 01:17:36 GMT 25.462280 55.018921 26,000 243 536 -64
2022-07-04 01:17:34 GMT 25.462280 55.018921 26,000 243 536 0
2022-07-04 01:17:32 GMT 25.463928 55.022327 25,975 243 536 0
2022-07-04 01:17:29 GMT 25.467285 55.029327 25,975 243 536 0
2022-07-04 01:17:28 GMT 25.468451 55.031761 26,000 243 536 0
2022-07-04 01:17:27 GMT 25.469696 55.034435 26,000 243 536 -64
2022-07-04 01:17:26 GMT 25.470886 55.036877 26,000 243 536 0
2022-07-04 01:17:24 GMT 25.472946 55.041248 26,000 243 536 0
2022-07-04 01:17:23 GMT 25.474222 55.043888 26,000 243 536 0
2022-07-04 01:17:22 GMT 25.475386 55.046322 25,975 243 536 -64
2022-07-04 01:17:20 GMT 25.477715 55.051193 26,000 243 536 -64
2022-07-04 01:17:19 GMT 25.478760 55.053356 25,975 243 536 0
2022-07-04 01:17:18 GMT 25.480042 55.056065 26,000 243 536 0
2022-07-04 01:17:17 GMT 25.481094 55.058239 26,000 243 536 -64
2022-07-04 01:17:14 GMT 25.484344 55.065002 26,000 243 536 -64
2022-07-04 01:17:13 GMT 25.485628 55.067673 26,000 243 536 -64
2022-07-04 01:17:11 GMT 25.491531 55.080059 26,000 243 536 -64
2022-07-04 01:17:09 GMT 25.491531 55.080059 26,000 243 535 -64
2022-07-04 01:17:07 GMT 25.493729 55.084671 26,000 243 535 -64
2022-07-04 01:17:05 GMT 25.496010 55.089493 26,000 243 535 -64
2022-07-04 01:17:01 GMT 25.500664 55.099182 26,000 243 535 -128
2022-07-04 01:16:57 GMT 25.505173 55.108643 26,000 243 534 -64
2022-07-04 01:16:56 GMT 25.508764 55.116127 26,000 243 535 -64
2022-07-04 01:16:54 GMT 25.508764 55.116127 26,000 243 535 -64
2022-07-04 01:16:50 GMT 25.512487 55.123852 26,000 242 532 -64
2022-07-04 01:16:48 GMT 25.514118 55.127216 26,000 242 532 -64
2022-07-04 01:16:45 GMT 25.518261 55.135925 26,000 242 532 -64
2022-07-04 01:16:43 GMT 25.520636 55.140694 26,000 242 532 -64
2022-07-04 01:16:42 GMT 25.522963 55.145458 26,000 242 531 -64
2022-07-04 01:16:39 GMT 25.525337 55.150227 26,000 242 530 -64
2022-07-04 01:16:37 GMT 25.527832 55.155231 26,000 241 530 0
2022-07-04 01:16:36 GMT 25.529022 55.157623 26,000 241 529 0
2022-07-04 01:16:35 GMT 25.530132 55.159710 26,000 241 529 0
2022-07-04 01:16:32 GMT 25.533417 55.166065 26,000 240 528 0
2022-07-04 01:16:31 GMT 25.534653 55.168407 26,000 240 528 -64
2022-07-04 01:16:29 GMT 25.537399 55.173492 26,000 239 527 -64
2022-07-04 01:16:28 GMT 25.542747 55.182823 26,000 238 527 0
2022-07-04 01:16:26 GMT 25.542747 55.182823 26,000 237 526 0
2022-07-04 01:16:18 GMT 25.553453 55.199509 26,000 232 524 64
2022-07-04 01:16:15 GMT 25.557644 55.205418 26,000 231 524 64
2022-07-04 01:16:05 GMT 25.575193 55.226974 25,975 225 523 192
2022-07-04 01:15:56 GMT 25.589394 55.241589 25,975 222 524 128
2022-07-04 01:15:53 GMT 25.594070 55.245869 25,975 219 524 128
2022-07-04 01:15:48 GMT 25.604242 55.254597 25,975 216 525 -64
2022-07-04 01:15:44 GMT 25.613617 55.261890 25,975 210 527 -768
2022-07-04 01:15:38 GMT 25.625797 55.270298 26,025 210 527 -768
2022-07-04 01:15:35 GMT 25.632641 55.274548 26,050 207 527 -1664
2022-07-04 01:15:32 GMT 25.636923 55.277088 26,100 208 528 -1408
2022-07-04 01:15:27 GMT 25.647909 55.283100 26,225 205 528 -2048
2022-07-04 01:15:23 GMT 25.660309 55.288952 26,425 202 527 -2880
2022-07-04 01:15:18 GMT 25.670837 55.293377 26,650 197 526 -3712
2022-07-04 01:15:12 GMT 25.683838 55.298107 26,950 197 526 -3648
2022-07-04 01:15:06 GMT 25.696930 55.302326 27,250 195 525 -3840
2022-07-04 01:15:02 GMT 25.708473 55.305695 27,550 195 523 -3904
2022-07-04 01:14:57 GMT 25.718342 55.308544 27,800 195 523 -3968
2022-07-04 01:14:51 GMT 25.739685 55.314533 28,650 195 517 -4288
2022-07-04 01:14:47 GMT 25.739685 55.314533 28,375 195 520 -4224
2022-07-04 01:14:45 GMT 25.745529 55.316162 28,525 195 519 -4288
2022-07-04 01:14:43 GMT 25.751162 55.317768 28,700 195 516 -4160
2022-07-04 01:14:40 GMT 25.759277 55.320080 28,925 195 513 -3904
2022-07-04 01:14:34 GMT 25.771086 55.323418 29,275 195 513 -3904
2022-07-04 01:14:30 GMT 25.782852 55.326794 29,550 195 512 -3776
2022-07-04 01:14:23 GMT 25.798225 55.331242 29,925 195 510 -3520
2022-07-04 01:14:18 GMT 25.807617 55.333965 30,225 195 509 -3136
2022-07-04 01:14:15 GMT 25.814484 55.335896 30,275 195 509 -2752
2022-07-04 01:14:12 GMT 25.822266 55.338085 30,425 194 509 -2688
2022-07-04 01:14:09 GMT 25.829132 55.339966 30,550 194 509 -2304
2022-07-04 01:14:05 GMT 25.839249 55.342693 30,675 194 510 -2048
2022-07-04 01:14:01 GMT 25.847534 55.344872 30,800 194 510 -1984
2022-07-04 01:13:58 GMT 25.853531 55.346424 30,875 193 512 -2048
2022-07-04 01:13:54 GMT 25.863739 55.348965 31,000 193 512 -2112
2022-07-04 01:13:52 GMT 25.869781 55.350468 31,100 193 512 -2176
2022-07-04 01:13:49 GMT 25.878807 55.352661 31,225 193 513 -2240
2022-07-04 01:13:44 GMT 25.887451 55.354668 31,350 192 513 -2368
2022-07-04 01:13:41 GMT 25.894217 55.356197 31,450 192 514 -2432
2022-07-04 01:13:37 GMT 25.902643 55.358101 31,600 192 514 -2304
2022-07-04 01:13:31 GMT 25.919724 55.361767 31,825 191 515 -2048
2022-07-04 01:13:28 GMT 25.926819 55.363216 31,925 191 516 -1984
2022-07-04 01:13:23 GMT 25.936440 55.365177 32,050 191 518 -1856
2022-07-04 01:13:16 GMT 25.951813 55.368244 32,250 191 519 -1792
2022-07-04 01:13:10 GMT 25.968933 55.371662 32,425 191 522 -1600
2022-07-04 01:13:07 GMT 25.977266 55.373314 32,525 191 523 -1664
2022-07-04 01:12:59 GMT 25.994024 55.376640 32,700 191 525 -2240
2022-07-04 01:12:55 GMT 26.002396 55.378349 32,850 191 526 -2624
2022-07-04 01:12:48 GMT 26.020157 55.381874 33,175 191 525 -3008
2022-07-04 01:12:46 GMT 26.027122 55.383244 33,300 191 525 -2752
2022-07-04 01:12:39 GMT 26.042221 55.386276 33,525 191 526 -2240
2022-07-04 01:12:34 GMT 26.052795 55.388401 33,675 191 527 -1920
2022-07-04 01:12:29 GMT 26.066507 55.391113 33,850 191 529 -1024
2022-07-04 01:12:24 GMT 26.079300 55.393688 33,925 191 529 -1024
2022-07-04 01:12:18 GMT 26.092623 55.396339 33,975 191 530 -576
2022-07-04 01:12:13 GMT 26.103748 55.398560 33,975 191 530 -320
2022-07-04 01:12:08 GMT 26.117065 55.401203 34,000 191 530 0
2022-07-04 01:12:04 GMT 26.129150 55.403637 34,000 191 530 0
2022-07-04 01:11:58 GMT 26.140732 55.405918 33,975 191 529 0
2022-07-04 01:11:52 GMT 26.154024 55.408596 33,975 191 530 0
2022-07-04 01:11:48 GMT 26.165863 55.410946 33,975 191 529 0
2022-07-04 01:11:43 GMT 26.179413 55.413692 33,975 191 529 0
2022-07-04 01:11:38 GMT 26.190289 55.415882 33,975 191 529 -64
2022-07-04 01:11:33 GMT 26.201157 55.418045 33,975 191 529 -64
2022-07-04 01:11:31 GMT 26.204544 55.418716 34,000 191 529 -64
2022-07-04 01:11:27 GMT 26.215164 55.420841 34,000 191 530 -64
2022-07-04 01:11:22 GMT 26.229675 55.423744 34,000 191 530 -64
2022-07-04 01:11:16 GMT 26.241760 55.426182 34,000 191 530 -64
2022-07-04 01:11:11 GMT 26.254578 55.428772 34,000 191 529 0
2022-07-04 01:11:07 GMT 26.265472 55.430950 33,975 191 529 0
2022-07-04 01:11:03 GMT 26.273432 55.432522 33,975 191 529 -64
2022-07-04 01:11:00 GMT 26.284092 55.434635 33,975 191 529 -64
2022-07-04 01:10:56 GMT 26.289864 55.435799 34,000 191 529 -64
2022-07-04 01:10:51 GMT 26.302643 55.438412 34,000 191 528 -64
2022-07-04 01:10:49 GMT 26.306488 55.439186 34,000 191 528 -64
2022-07-04 01:10:46 GMT 26.314444 55.440762 34,000 191 528 -64
2022-07-04 01:10:42 GMT 26.323883 55.442661 34,000 191 528 0
2022-07-04 01:10:36 GMT 26.338806 55.445667 34,000 191 528 0
2022-07-04 01:10:32 GMT 26.348194 55.447575 34,000 191 528 0
2022-07-04 01:10:28 GMT 26.356386 55.449211 33,975 191 527 0
2022-07-04 01:10:23 GMT 26.368910 55.451748 33,975 191 527 0
2022-07-04 01:10:21 GMT 26.375885 55.453129 33,975 191 527 0
2022-07-04 01:10:18 GMT 26.383118 55.454578 34,000 191 527 0
2022-07-04 01:10:10 GMT 26.399460 55.457897 34,000 191 527 -64
2022-07-04 01:10:07 GMT 26.407410 55.459461 34,000 191 527 -64
2022-07-04 01:10:00 GMT 26.424726 55.462997 33,975 191 527 0
2022-07-04 01:09:50 GMT 26.449036 55.467899 33,975 191 527 -64
2022-07-04 01:09:40 GMT 26.474075 55.472923 34,000 191 527 -64
2022-07-04 01:09:30 GMT 26.499115 55.477951 33,975 191 527 64
2022-07-04 01:09:18 GMT 26.525116 55.483185 33,975 191 527 0
2022-07-04 01:09:06 GMT 26.554001 55.489040 34,000 191 528 -64
2022-07-04 01:08:58 GMT 26.573730 55.493031 33,975 191 528 0
2022-07-04 01:08:47 GMT 26.600508 55.498440 33,975 191 528 0
2022-07-04 01:08:37 GMT 26.624405 55.503242 33,975 191 529 -64
2022-07-04 01:08:28 GMT 26.646873 55.507790 33,975 191 529 -64
2022-07-04 01:08:18 GMT 26.672012 55.512913 34,000 191 530 0
2022-07-04 01:08:07 GMT 26.696684 55.517876 33,975 191 530 -64
2022-07-04 01:07:57 GMT 26.721357 55.522842 34,000 191 530 0
2022-07-04 01:07:47 GMT 26.747223 55.528114 33,975 191 530 -64
2022-07-04 01:07:36 GMT 26.774101 55.533512 33,975 191 530 0
2022-07-04 01:07:25 GMT 26.799238 55.538635 33,975 191 530 -64
2022-07-04 01:07:14 GMT 26.824631 55.543816 33,975 191 530 -64
2022-07-04 01:07:04 GMT 26.851730 55.549313 34,000 191 530 0
2022-07-04 01:06:54 GMT 26.874435 55.553925 33,975 191 529 0
2022-07-04 01:06:44 GMT 26.898350 55.558758 34,000 191 529 0
2022-07-04 01:06:31 GMT 26.929504 55.565117 34,000 191 529 0
2022-07-04 01:06:27 GMT 26.939873 55.567211 34,000 191 529 -64
2022-07-04 01:06:19 GMT 26.957237 55.570747 34,000 191 528 0
2022-07-04 01:06:14 GMT 26.969294 55.573231 33,975 191 528 0
2022-07-04 01:06:12 GMT 26.975113 55.574394 34,000 191 528 0
2022-07-04 01:06:07 GMT 26.987637 55.576981 33,975 191 528 0
2022-07-04 01:06:03 GMT 26.998249 55.579094 34,000 191 528 -64
2022-07-04 01:05:52 GMT 27.023575 55.584290 34,000 191 528 -64
2022-07-04 01:05:43 GMT 27.046478 55.588921 34,000 191 528 0
2022-07-04 01:05:31 GMT 27.074409 55.594624 34,000 191 528 64
2022-07-04 01:05:20 GMT 27.099455 55.599747 33,975 191 527 64
2022-07-04 01:05:08 GMT 27.127625 55.605488 33,975 191 527 0
2022-07-04 01:04:59 GMT 27.150009 55.610046 33,975 191 528 0
2022-07-04 01:04:49 GMT 27.199680 55.620190 33,975 191 529 0
2022-07-04 01:04:39 GMT 27.199680 55.620190 33,975 191 529 0
2022-07-04 01:04:24 GMT 27.236458 55.627743 34,000 191 530 -64
2022-07-04 01:04:13 GMT 27.262299 55.633057 34,000 191 530 -64
2022-07-04 01:04:08 GMT 27.275391 55.635750 34,000 191 530 -64
2022-07-04 01:03:58 GMT 27.299561 55.640675 34,000 191 530 0
2022-07-04 01:03:45 GMT 27.328079 55.646530 34,000 191 529 0
2022-07-04 01:03:31 GMT 27.365295 55.654148 34,000 191 529 0
2022-07-04 01:03:11 GMT 27.412378 55.663815 33,975 191 529 0
2022-07-04 01:00:11 GMT 27.844242 55.722076 34,000 170 508 64
We lost coverage of the aircraft here for a total of 14 minutes
2022-07-04 00:46:32 GMT 28.295563 56.042316 34,000 346 512 64
2022-07-04 00:43:40 GMT 27.892797 56.047440 34,000 6 507 0
2022-07-04 00:41:07 GMT 27.536812 56.003017 34,000 6 506 -64
2022-07-04 00:40:35 GMT 27.462004 55.993774 34,000 6 509 0
2022-07-04 00:40:18 GMT 27.420292 55.988598 33,975 6 509 -64
2022-07-04 00:40:07 GMT 27.395233 55.985447 34,000 6 509 0
2022-07-04 00:39:44 GMT 27.343140 55.979019 34,000 6 509 -64
2022-07-04 00:39:35 GMT 27.320618 55.976223 34,000 6 510 -64
2022-07-04 00:39:23 GMT 27.293839 55.972958 33,975 6 509 -64
2022-07-04 00:39:14 GMT 27.270626 55.970058 34,000 6 509 -64
2022-07-04 00:39:04 GMT 27.247164 55.967155 34,000 6 509 -64
2022-07-04 00:38:54 GMT 27.223068 55.964149 33,975 6 509 0
2022-07-04 00:38:43 GMT 27.198006 55.961082 34,000 6 508 0
2022-07-04 00:38:32 GMT 27.173401 55.958084 33,975 6 507 0
2022-07-04 00:38:08 GMT 27.116318 55.951038 34,000 6 508 -64
2022-07-04 00:38:00 GMT 27.098244 55.948826 34,000 6 508 0
2022-07-04 00:37:54 GMT 27.082581 55.946892 33,975 6 508 0
2022-07-04 00:37:47 GMT 27.069242 55.945236 33,975 6 508 0
2022-07-04 00:37:33 GMT 27.035492 55.941063 33,975 6 508 0
2022-07-04 00:37:28 GMT 27.023340 55.939529 33,975 6 508 0
2022-07-04 00:37:17 GMT 26.998764 55.936527 33,975 6 508 -64
2022-07-04 00:37:07 GMT 26.975327 55.933624 33,975 6 508 0
2022-07-04 00:36:56 GMT 26.947508 55.930233 33,975 6 507 64
2022-07-04 00:36:45 GMT 26.921764 55.927116 33,975 6 507 -64
2022-07-04 00:36:38 GMT 26.905378 55.925110 34,000 6 508 -192
2022-07-04 00:36:31 GMT 26.888992 55.923103 34,000 6 508 -192
2022-07-04 00:36:27 GMT 26.877771 55.921730 34,025 6 508 -128
2022-07-04 00:36:16 GMT 26.854568 55.918854 34,000 6 508 384
2022-07-04 00:36:05 GMT 26.829079 55.915764 33,875 6 507 768
2022-07-04 00:35:55 GMT 26.805908 55.912792 33,750 6 507 896
2022-07-04 00:35:46 GMT 26.782806 55.909477 33,575 7 507 1280
2022-07-04 00:35:36 GMT 26.759949 55.905830 33,400 8 508 1024
2022-07-04 00:35:30 GMT 26.746216 55.903465 33,325 8 509 960
2022-07-04 00:35:25 GMT 26.735275 55.901501 33,250 9 508 960
2022-07-04 00:35:15 GMT 26.712753 55.897141 33,100 10 508 1088
2022-07-04 00:35:03 GMT 26.684719 55.891308 32,900 10 508 1088
2022-07-04 00:34:55 GMT 26.664797 55.887081 32,750 10 508 1088
2022-07-04 00:34:42 GMT 26.634165 55.880692 32,550 10 509 960
2022-07-04 00:34:21 GMT 26.587751 55.870918 32,225 10 509 1088
2022-07-04 00:34:14 GMT 26.568924 55.866982 32,100 10 509 1152
2022-07-04 00:34:00 GMT 26.538254 55.860504 31,875 10 511 1216
2022-07-04 00:33:50 GMT 26.514038 55.855476 31,650 10 511 1216
2022-07-04 00:33:41 GMT 26.495361 55.851589 31,525 10 512 1152
2022-07-04 00:33:31 GMT 26.471325 55.846622 31,350 10 512 896
2022-07-04 00:33:19 GMT 26.444458 55.841019 31,225 10 511 768
2022-07-04 00:33:06 GMT 26.411819 55.834179 31,050 10 511 704
2022-07-04 00:33:00 GMT 26.397633 55.831200 31,000 10 509 576
2022-07-04 00:32:49 GMT 26.373520 55.826233 30,900 10 508 576
2022-07-04 00:32:47 GMT 26.369329 55.825336 30,900 10 507 832
2022-07-04 00:32:35 GMT 26.340408 55.819359 30,850 10 507 832
2022-07-04 00:32:28 GMT 26.323568 55.815830 30,650 10 506 640
2022-07-04 00:32:22 GMT 26.309967 55.812984 30,575 10 505 704
2022-07-04 00:32:12 GMT 26.288561 55.808487 30,475 10 504 768
2022-07-04 00:31:55 GMT 26.246613 55.799610 30,350 10 503 768
2022-07-04 00:31:49 GMT 26.233025 55.797291 30,200 9 503 768
2022-07-04 00:31:47 GMT 26.230696 55.796970 30,175 7 503 960
2022-07-04 00:31:42 GMT 26.219376 55.795414 30,100 5 503 960
2022-07-04 00:31:36 GMT 26.202858 55.793751 30,000 4 503 768
2022-07-04 00:31:32 GMT 26.194479 55.793118 29,950 3 503 640
2022-07-04 00:31:26 GMT 26.181910 55.792538 29,925 1 503 640
2022-07-04 00:31:21 GMT 26.168364 55.792271 29,850 359 503 896
2022-07-04 00:31:14 GMT 26.152267 55.792770 29,750 358 503 896
2022-07-04 00:31:11 GMT 26.147833 55.793011 29,725 357 503 896
2022-07-04 00:31:06 GMT 26.132936 55.794277 29,650 356 503 832
2022-07-04 00:31:01 GMT 26.122009 55.794895 29,600 0 502 768
2022-07-04 00:30:57 GMT 26.111343 55.794895 29,525 1 500 704
2022-07-04 00:30:53 GMT 26.103703 55.794491 29,525 1 500 704
2022-07-04 00:30:47 GMT 26.090387 55.792904 29,425 12 493 576
2022-07-04 00:30:43 GMT 26.081085 55.791164 29,425 12 493 576
2022-07-04 00:30:32 GMT 26.056591 55.784031 29,300 16 491 640
2022-07-04 00:30:22 GMT 26.037094 55.775257 29,250 31 482 448
2022-07-04 00:30:14 GMT 26.020569 55.765255 29,200 31 482 448
2022-07-04 00:30:04 GMT 26.001566 55.751812 29,100 32 479 576
2022-07-04 00:29:59 GMT 25.991638 55.744785 29,050 32 478 1088
2022-07-04 00:29:54 GMT 25.982527 55.738293 28,975 32 477 1280
2022-07-04 00:29:50 GMT 25.975031 55.733009 28,900 32 477 1280
2022-07-04 00:29:45 GMT 25.964186 55.725403 28,800 32 477 1280
2022-07-04 00:29:33 GMT 25.943655 55.710876 28,600 32 477 1088
2022-07-04 00:29:28 GMT 25.933228 55.703484 28,500 32 477 1152
2022-07-04 00:29:22 GMT 25.923918 55.696880 28,400 32 477 1216
2022-07-04 00:29:18 GMT 25.916796 55.691864 28,350 32 477 1216
2022-07-04 00:29:11 GMT 25.903015 55.682144 28,200 33 477 1344
2022-07-04 00:29:08 GMT 25.896515 55.677467 28,125 33 477 1280
2022-07-04 00:29:03 GMT 25.886118 55.669624 28,025 35 475 1152
2022-07-04 00:28:58 GMT 25.879440 55.664410 27,950 35 475 1088
2022-07-04 00:28:51 GMT 25.867035 55.654251 27,850 37 475 1024
2022-07-04 00:28:49 GMT 25.862654 55.650558 27,800 38 475 1024
2022-07-04 00:28:42 GMT 25.850643 55.639942 27,700 39 474 1152
2022-07-04 00:28:38 GMT 25.844055 55.633884 27,625 40 474 1280
2022-07-04 00:28:27 GMT 25.825365 55.615902 27,400 42 472 1152
2022-07-04 00:28:19 GMT 25.812843 55.603001 27,275 43 471 1152
2022-07-04 00:28:11 GMT 25.800613 55.590210 27,125 43 471 1216
2022-07-04 00:28:09 GMT 25.796814 55.586243 27,075 43 471 1216
2022-07-04 00:28:00 GMT 25.782072 55.570816 26,900 43 470 1344
2022-07-04 00:27:57 GMT 25.778908 55.567501 26,875 43 470 1344
2022-07-04 00:27:51 GMT 25.768152 55.556255 26,700 43 470 1792
2022-07-04 00:27:48 GMT 25.763535 55.551453 26,625 43 470 1920
2022-07-04 00:27:39 GMT 25.750044 55.537338 26,375 43 472 1856
2022-07-04 00:27:36 GMT 25.745623 55.532726 26,300 43 472 1664
2022-07-04 00:27:30 GMT 25.735752 55.522415 26,150 43 472 1344
2022-07-04 00:27:28 GMT 25.731609 55.518063 26,100 43 471 1472
2022-07-04 00:27:20 GMT 25.719727 55.505573 25,925 43 472 1856
2022-07-04 00:27:17 GMT 25.715084 55.500702 25,850 43 473 1728
2022-07-04 00:27:10 GMT 25.703354 55.488316 25,650 43 473 1216
2022-07-04 00:27:07 GMT 25.698883 55.483650 25,625 43 473 1216
2022-07-04 00:26:58 GMT 25.685715 55.469769 25,450 43 472 1216
2022-07-04 00:26:55 GMT 25.680494 55.464272 25,400 43 472 1216
2022-07-04 00:26:48 GMT 25.669556 55.452778 25,275 43 471 1024
2022-07-04 00:26:46 GMT 25.665600 55.448620 25,225 43 470 1024
2022-07-04 00:26:37 GMT 25.650795 55.433071 25,100 43 468 832
2022-07-04 00:26:35 GMT 25.649048 55.431263 25,100 43 468 832
2022-07-04 00:26:26 GMT 25.632706 55.414227 24,925 43 464 1152
2022-07-04 00:26:18 GMT 25.621281 55.402344 24,800 43 463 1216
2022-07-04 00:26:16 GMT 25.618332 55.399220 24,750 43 463 1216
2022-07-04 00:26:11 GMT 25.610714 55.391201 24,675 43 462 1152
2022-07-04 00:26:08 GMT 25.605082 55.385345 24,600 43 461 1088
2022-07-04 00:26:05 GMT 25.599655 55.379688 24,550 43 461 1024
2022-07-04 00:25:58 GMT 25.590088 55.369568 24,450 43 459 1152
2022-07-04 00:25:55 GMT 25.585901 55.365238 24,400 43 459 1152
2022-07-04 00:25:53 GMT 25.582176 55.361404 24,350 42 459 1152
2022-07-04 00:25:47 GMT 25.573837 55.353039 24,250 41 458 1216
2022-07-04 00:25:44 GMT 25.566513 55.345867 24,175 41 457 1152
2022-07-04 00:25:35 GMT 25.553375 55.333355 24,025 40 455 1216
2022-07-04 00:25:32 GMT 25.550125 55.330353 24,000 39 455 1280
2022-07-04 00:25:27 GMT 25.540188 55.321342 23,875 38 455 1344
2022-07-04 00:25:25 GMT 25.536882 55.318443 23,825 38 454 1344
2022-07-04 00:25:23 GMT 25.532776 55.314838 23,775 38 455 1280
2022-07-04 00:25:14 GMT 25.518723 55.302990 23,625 36 453 960
2022-07-04 00:25:11 GMT 25.515188 55.300098 23,600 36 452 832
2022-07-04 00:25:04 GMT 25.502666 55.290043 23,525 36 450 640
2022-07-04 00:25:02 GMT 25.497116 55.285595 23,475 36 448 576
2022-07-04 00:24:54 GMT 25.484711 55.275623 23,425 36 445 448
2022-07-04 00:24:51 GMT 25.480728 55.272472 23,425 35 442 448
2022-07-04 00:24:44 GMT 25.468460 55.262653 23,350 36 438 576
2022-07-04 00:24:41 GMT 25.462399 55.257759 23,325 35 437 832
2022-07-04 00:24:33 GMT 25.450575 55.248379 23,200 35 434 1344
2022-07-04 00:24:30 GMT 25.446012 55.244698 23,150 35 434 1344
2022-07-04 00:24:22 GMT 25.433628 55.234852 22,825 35 432 1600
2022-07-04 00:24:20 GMT 25.428787 55.230965 22,900 35 432 1600
2022-07-04 00:24:14 GMT 25.420807 55.224609 22,775 35 432 1600
2022-07-04 00:24:12 GMT 25.416275 55.220947 22,725 36 431 1536
2022-07-04 00:24:08 GMT 25.411238 55.216923 22,650 36 431 1472
2022-07-04 00:24:02 GMT 25.399750 55.207775 22,525 36 430 1408
2022-07-04 00:23:59 GMT 25.394897 55.203857 22,425 36 430 1472
2022-07-04 00:23:53 GMT 25.385880 55.196636 22,275 36 429 1536
2022-07-04 00:23:48 GMT 25.378189 55.190430 22,175 35 428 1536
2022-07-04 00:23:43 GMT 25.369171 55.183258 22,025 36 428 1536
2022-07-04 00:23:38 GMT 25.361286 55.176968 21,925 35 427 1600
2022-07-04 00:23:31 GMT 25.350861 55.168659 21,750 35 426 1600
2022-07-04 00:23:27 GMT 25.344296 55.163441 21,650 35 425 1600
2022-07-04 00:23:21 GMT 25.334793 55.156048 21,525 35 425 1600
2022-07-04 00:23:17 GMT 25.327103 55.149944 21,400 36 424 1536
2022-07-04 00:23:12 GMT 25.320646 55.144577 21,300 38 423 1472
2022-07-04 00:23:06 GMT 25.311264 55.136414 21,150 39 422 1536
2022-07-04 00:23:01 GMT 25.303436 55.129242 21,025 40 420 1536
2022-07-04 00:22:53 GMT 25.288294 55.114159 20,825 43 418 1344
2022-07-04 00:22:51 GMT 25.288294 55.114159 20,800 43 418 1344
2022-07-04 00:22:45 GMT 25.280960 55.106251 20,700 45 415 1280
2022-07-04 00:22:41 GMT 25.274780 55.099232 20,600 46 414 1408
2022-07-04 00:22:35 GMT 25.267902 55.090996 20,475 47 412 1472
2022-07-04 00:22:32 GMT 25.264551 55.086952 20,425 47 412 1472
2022-07-04 00:22:30 GMT 25.261871 55.083668 20,375 47 412 1472
2022-07-04 00:22:25 GMT 25.253952 55.074005 20,225 47 410 1600
2022-07-04 00:22:22 GMT 25.252029 55.071663 20,200 47 409 1600
2022-07-04 00:22:19 GMT 25.247543 55.066223 20,000 47 409 1728
2022-07-04 00:22:13 GMT 25.239624 55.056713 19,900 47 408 1728
2022-07-04 00:22:10 GMT 25.235641 55.051922 19,850 47 408 1728
2022-07-04 00:22:02 GMT 25.225800 55.040131 19,650 47 406 1664
2022-07-04 00:22:00 GMT 25.222609 55.036324 19,575 47 406 1664
2022-07-04 00:21:49 GMT 25.208921 55.019840 19,325 47 404 1728
2022-07-04 00:21:42 GMT 25.200310 55.009529 19,100 47 402 1728
2022-07-04 00:21:40 GMT 25.197922 55.006611 19,050 47 402 1728
2022-07-04 00:21:31 GMT 25.185837 54.992065 18,800 47 401 1728
2022-07-04 00:21:29 GMT 25.183594 54.989319 18,750 47 400 1856
2022-07-04 00:21:23 GMT 25.176910 54.981182 18,600 47 399 1856
2022-07-04 00:21:21 GMT 25.174347 54.978180 18,550 46 400 1920
2022-07-04 00:21:19 GMT 25.165396 54.968124 18,350 44 400 1984
2022-07-04 00:21:10 GMT 25.159203 54.961647 18,200 42 400 2112
2022-07-04 00:21:07 GMT 25.156458 54.958900 18,025 40 400 2176
2022-07-04 00:21:01 GMT 25.145325 54.948376 17,875 39 401 2304
2022-07-04 00:20:57 GMT 25.141094 54.944698 17,750 37 402 2304
2022-07-04 00:20:51 GMT 25.132111 54.937340 17,550 35 403 2176
2022-07-04 00:20:48 GMT 25.127335 54.933674 17,450 33 404 2176
2022-07-04 00:20:40 GMT 25.112885 54.923660 17,150 31 405 1984
2022-07-04 00:20:37 GMT 25.110168 54.921825 16,900 31 404 2112
2022-07-04 00:20:29 GMT 25.098127 54.913761 16,875 31 405 2112
2022-07-04 00:20:27 GMT 25.094147 54.911091 16,800 31 404 2112
2022-07-04 00:20:23 GMT 25.088211 54.907127 16,675 31 404 2240
2022-07-04 00:20:19 GMT 25.080048 54.901630 16,500 31 404 2176
2022-07-04 00:20:16 GMT 25.075882 54.898834 16,425 31 404 2112
2022-07-04 00:20:13 GMT 25.071220 54.895676 16,325 31 404 1856
2022-07-04 00:20:10 GMT 25.066269 54.892323 16,225 31 404 1856
2022-07-04 00:20:06 GMT 25.060822 54.888660 16,150 31 404 1792
2022-07-04 00:20:02 GMT 25.053949 54.884014 16,025 31 403 1856
2022-07-04 00:19:58 GMT 25.046268 54.878887 15,875 31 403 1792
2022-07-04 00:19:55 GMT 25.039764 54.874470 15,775 31 402 1792
2022-07-04 00:19:49 GMT 25.033560 54.870335 15,675 31 401 1856
2022-07-04 00:19:44 GMT 25.025116 54.864704 15,500 31 401 1984
2022-07-04 00:19:39 GMT 25.016830 54.859161 15,350 31 401 1984
2022-07-04 00:19:33 GMT 25.008047 54.853336 15,200 31 400 1792
2022-07-04 00:19:29 GMT 25.001541 54.849041 15,100 31 399 1280
2022-07-04 00:19:24 GMT 24.992386 54.842884 15,000 31 398 512
2022-07-04 00:19:18 GMT 24.981838 54.835819 14,950 31 396 768
2022-07-04 00:19:13 GMT 24.975882 54.831833 14,900 31 396 960
2022-07-04 00:19:09 GMT 24.969271 54.827427 14,825 31 394 1280
2022-07-04 00:19:07 GMT 24.965500 54.824940 14,800 30 394 1472
2022-07-04 00:19:03 GMT 24.960798 54.821880 14,725 30 392 1664
2022-07-04 00:19:01 GMT 24.957230 54.819489 14,650 30 392 1728
2022-07-04 00:18:58 GMT 24.953476 54.817047 14,600 31 392 1664
2022-07-04 00:18:54 GMT 24.945740 54.811810 14,475 32 390 1664
2022-07-04 00:18:50 GMT 24.941757 54.809010 14,400 33 389 1664
2022-07-04 00:18:48 GMT 24.937708 54.806076 14,325 34 388 1664
2022-07-04 00:18:44 GMT 24.930586 54.800686 14,225 36 386 1664
2022-07-04 00:18:40 GMT 24.925507 54.796600 14,125 36 385 1728
2022-07-04 00:18:37 GMT 24.922119 54.793751 14,050 37 384 1792
2022-07-04 00:18:34 GMT 24.916061 54.788559 13,950 39 383 1792
2022-07-04 00:18:31 GMT 24.912643 54.785461 13,875 40 383 1856
2022-07-04 00:18:28 GMT 24.908707 54.781822 13,800 41 382 1856
2022-07-04 00:18:22 GMT 24.901815 54.775085 13,650 42 380 1920
2022-07-04 00:18:20 GMT 24.898697 54.771923 13,575 43 380 1984
2022-07-04 00:18:18 GMT 24.895523 54.768574 13,500 44 379 1984
2022-07-04 00:18:13 GMT 24.889294 54.761974 13,350 44 379 1984
2022-07-04 00:18:10 GMT 24.885635 54.758099 13,250 44 379 2048
2022-07-04 00:18:06 GMT 24.881607 54.753826 13,150 43 379 2048
2022-07-04 00:18:03 GMT 24.876297 54.748180 13,025 44 378 1984
2022-07-04 00:17:59 GMT 24.872498 54.744213 12,925 43 377 1920
2022-07-04 00:17:56 GMT 24.869202 54.740753 12,875 43 377 1792
2022-07-04 00:17:52 GMT 24.862526 54.733681 12,725 44 371 1152
2022-07-04 00:17:49 GMT 24.859266 54.730206 12,675 44 374 1472
2022-07-04 00:17:46 GMT 24.856155 54.726868 12,625 44 374 1344
2022-07-04 00:17:42 GMT 24.849352 54.719635 12,525 44 371 1088
2022-07-04 00:17:39 GMT 24.846497 54.716595 12,475 44 369 896
2022-07-04 00:17:37 GMT 24.844418 54.714401 12,450 44 369 960
2022-07-04 00:17:30 GMT 24.836550 54.706059 12,350 43 363 1024
2022-07-04 00:17:27 GMT 24.832174 54.701447 12,300 43 362 960
2022-07-04 00:17:21 GMT 24.824026 54.692844 12,200 43 357 1024
2022-07-04 00:17:17 GMT 24.819744 54.688335 12,150 43 354 1088
2022-07-04 00:17:12 GMT 24.813721 54.681957 12,075 44 350 1088
2022-07-04 00:17:10 GMT 24.811386 54.679462 12,025 44 349 1024
2022-07-04 00:17:07 GMT 24.807907 54.675751 11,975 44 347 1088
2022-07-04 00:17:01 GMT 24.801636 54.669140 11,900 43 344 1152
2022-07-04 00:16:57 GMT 24.796515 54.663719 11,825 44 340 1088
2022-07-04 00:16:55 GMT 24.795456 54.662628 11,800 44 339 1088
2022-07-04 00:16:49 GMT 24.787125 54.653778 11,675 44 335 1088
2022-07-04 00:16:46 GMT 24.785017 54.651543 11,650 44 333 1088
2022-07-04 00:16:39 GMT 24.777557 54.643707 11,525 43 329 1024
2022-07-04 00:16:36 GMT 24.773392 54.639282 11,475 43 326 1024
2022-07-04 00:16:30 GMT 24.766768 54.632317 11,375 43 321 960
2022-07-04 00:16:26 GMT 24.762360 54.627735 11,325 43 318 960
2022-07-04 00:16:19 GMT 24.755173 54.620159 11,200 43 313 1472
2022-07-04 00:16:15 GMT 24.751312 54.616096 11,125 43 311 2112
2022-07-04 00:16:05 GMT 24.740652 54.604900 10,750 43 311 2240
2022-07-04 00:15:59 GMT 24.734528 54.598389 10,550 44 311 2240
2022-07-04 00:15:55 GMT 24.729666 54.593189 10,400 44 311 2240
2022-07-04 00:15:48 GMT 24.722946 54.586029 10,175 44 310 2368
2022-07-04 00:15:44 GMT 24.718826 54.581654 10,050 43 310 2432
2022-07-04 00:15:37 GMT 24.711731 54.574280 9,775 43 311 2368
2022-07-04 00:15:35 GMT 24.709213 54.571636 9,675 43 311 2304
2022-07-04 00:15:33 GMT 24.707647 54.570026 9,625 43 311 2240
2022-07-04 00:15:27 GMT 24.700943 54.563030 9,425 43 310 2176
2022-07-04 00:15:23 GMT 24.697220 54.559090 9,300 43 309 2176
2022-07-04 00:15:15 GMT 24.688328 54.549709 9,025 44 309 2240
2022-07-04 00:15:13 GMT 24.686699 54.548000 8,950 44 308 2240
2022-07-04 00:15:09 GMT 24.681532 54.542507 8,800 44 307 2304
2022-07-04 00:15:06 GMT 24.679596 54.540455 8,725 44 307 2304
2022-07-04 00:15:02 GMT 24.674967 54.535564 8,575 43 306 2304
2022-07-04 00:14:54 GMT 24.667053 54.527233 8,300 43 306 2304
2022-07-04 00:14:52 GMT 24.665518 54.525612 8,250 44 306 2304
2022-07-04 00:14:45 GMT 24.657557 54.517113 7,975 44 306 2496
2022-07-04 00:14:42 GMT 24.654831 54.514210 7,875 44 306 2624
2022-07-04 00:14:33 GMT 24.643661 54.502155 7,425 44 308 2560
2022-07-04 00:14:30 GMT 24.643661 54.502155 7,425 44 307 2688
2022-07-04 00:14:24 GMT 24.637028 54.495090 7,150 44 308 2496
2022-07-04 00:14:21 GMT 24.633535 54.491360 7,025 44 307 2432
2022-07-04 00:14:13 GMT 24.625259 54.482525 6,750 38 308 2048
2022-07-04 00:14:10 GMT 24.622597 54.479904 6,650 41 308 2048
2022-07-04 00:14:03 GMT 24.613472 54.472858 6,425 28 309 1920
2022-07-04 00:14:00 GMT 24.610399 54.471199 6,350 23 309 1856
2022-07-04 00:13:53 GMT 24.600903 54.467625 6,175 12 308 1792
2022-07-04 00:13:50 GMT 24.596512 54.466705 6,075 7 308 1792
2022-07-04 00:13:43 GMT 24.585983 54.466351 5,900 345 301 1600
2022-07-04 00:13:39 GMT 24.580673 54.467113 5,800 350 303 1600
2022-07-04 00:13:32 GMT 24.570969 54.470112 5,625 335 296 1792
2022-07-04 00:13:29 GMT 24.567673 54.471691 5,550 335 296 1792
2022-07-04 00:13:25 GMT 24.562496 54.474724 5,425 325 292 1856
2022-07-04 00:13:19 GMT 24.556274 54.479778 5,250 319 290 1920
2022-07-04 00:13:13 GMT 24.550859 54.485607 5,100 312 286 2048
2022-07-04 00:13:09 GMT 24.546947 54.490734 4,950 309 284 2112
2022-07-04 00:13:05 GMT 24.543736 54.495296 4,825 308 282 2112
2022-07-04 00:12:58 GMT 24.538376 54.502918 4,600 308 280 2176
2022-07-04 00:12:54 GMT 24.535450 54.507111 4,475 308 279 2112
2022-07-04 00:12:48 GMT 24.530516 54.514057 4,300 308 277 1856
2022-07-04 00:12:37 GMT 24.522446 54.525349 4,025 309 271 1664
2022-07-04 00:12:28 GMT 24.514572 54.536236 3,725 309 264 2176
2022-07-04 00:12:16 GMT 24.506470 54.547577 3,375 308 259 1664
2022-07-04 00:12:07 GMT 24.499092 54.558002 3,125 308 252 1728

Making use of Plane Finder data

You are free to use the raw flight data, aircraft information and images provided in this report for your own purposes provided the data is correctly attributed to Plane Finder. We ask that you please credit Plane Finder and link to planefinder.net in close proximity to the content.

Optionally one of the following logos (no smaller then 150x24px) can be used and must link to planefinder.net

Embedding the Plane Finder map

You are welcome to embed the Plane Finder playback map on your website to offer visitors a more interactive experience. We suggest using the following HTML code:

<iframe src="//planefinder.net/data/report/EY65-A6-BLQ-7700-squawk-2022-07-04/map" width="800" height="600" seamless="seamless"></iframe>

Where our data comes from

Plane Finder has a global network of data feeds and antenna radars that receive data broadcast directly from aircraft. The primary technologies used are ADS-B and MLAT. We also show feeds from the FAA and a FLARM glider feed.

Click here to find out more about the Plane Finder network.

How we collect our data